Location Data

ID User Id Email Activity Type Accuracy Altitude Ellipsoidal Heading Latitude Longitude Speed Timestamp Created At
817205 AgVPjwh4gNY8gjsSZSI8kPEzDsQ2 steve@greenleaf-tdg.com unknown 35.00 119 168 -1 53.78361204 -1.62348109 -1.0000 2024-06-16T10:37:48.161Z 2024-06-16 10:37:48
817204 AgVPjwh4gNY8gjsSZSI8kPEzDsQ2 steve@greenleaf-tdg.com unknown 5.70 113 163 167 53.78615064 -1.62108142 8.8500 2024-06-16T10:34:31.000Z 2024-06-16 10:34:34
817203 AgVPjwh4gNY8gjsSZSI8kPEzDsQ2 steve@greenleaf-tdg.com unknown 4.90 72 121 184 53.79157826 -1.62212487 9.8800 2024-06-16T10:33:36.000Z 2024-06-16 10:33:36
817202 AgVPjwh4gNY8gjsSZSI8kPEzDsQ2 steve@greenleaf-tdg.com unknown 10.10 64 113 136 53.79706352 -1.62608005 18.1300 2024-06-16T10:31:11.000Z 2024-06-16 10:31:11
817201 AgVPjwh4gNY8gjsSZSI8kPEzDsQ2 steve@greenleaf-tdg.com unknown 14.10 99 148 146 53.80330197 -1.63729034 18.1100 2024-06-16T10:30:03.000Z 2024-06-16 10:30:04
817200 AgVPjwh4gNY8gjsSZSI8kPEzDsQ2 steve@greenleaf-tdg.com unknown 7.20 110 160 100 53.80685235 -1.64043947 12.9600 2024-06-16T10:28:05.025Z 2024-06-16 10:28:05
817199 AgVPjwh4gNY8gjsSZSI8kPEzDsQ2 steve@greenleaf-tdg.com unknown 8.50 107 157 102 53.80757803 -1.64709593 13.5200 2024-06-16T10:27:31.000Z 2024-06-16 10:27:31
817198 AgVPjwh4gNY8gjsSZSI8kPEzDsQ2 steve@greenleaf-tdg.com unknown 8.10 120 169 156 53.81031983 -1.65119779 7.3400 2024-06-16T10:26:12.000Z 2024-06-16 10:26:12
817197 AgVPjwh4gNY8gjsSZSI8kPEzDsQ2 steve@greenleaf-tdg.com unknown 4.90 86 135 116 53.81505495 -1.66050137 13.5900 2024-06-16T10:23:37.000Z 2024-06-16 10:23:37
817196 AgVPjwh4gNY8gjsSZSI8kPEzDsQ2 steve@greenleaf-tdg.com unknown 5.10 80 130 77 53.81654530 -1.66500945 10.6100 2024-06-16T10:23:04.034Z 2024-06-16 10:23:04
817195 AgVPjwh4gNY8gjsSZSI8kPEzDsQ2 steve@greenleaf-tdg.com unknown 4.90 91 140 54 53.81554222 -1.66964953 10.9300 2024-06-16T10:22:36.000Z 2024-06-16 10:22:36
817194 AgVPjwh4gNY8gjsSZSI8kPEzDsQ2 steve@greenleaf-tdg.com unknown 35.00 102 152 -1 53.81349433 -1.67106414 -1.0000 2024-06-16T09:18:09.422Z 2024-06-16 09:18:10
817193 AgVPjwh4gNY8gjsSZSI8kPEzDsQ2 steve@greenleaf-tdg.com unknown 4.70 104 154 81 53.81372832 -1.67092256 0.1700 2024-06-16T09:11:27.000Z 2024-06-16 09:11:27
817192 AgVPjwh4gNY8gjsSZSI8kPEzDsQ2 steve@greenleaf-tdg.com unknown 4.70 104 154 81 53.81372642 -1.67092542 0.0600 2024-06-16T09:11:26.027Z 2024-06-16 09:11:26
817191 AgVPjwh4gNY8gjsSZSI8kPEzDsQ2 steve@greenleaf-tdg.com unknown 4.90 89 138 245 53.81576805 -1.66881081 10.6800 2024-06-16T09:08:33.000Z 2024-06-16 09:08:33
817190 AgVPjwh4gNY8gjsSZSI8kPEzDsQ2 steve@greenleaf-tdg.com unknown 5.40 104 153 250 53.81552726 -1.65660554 12.9300 2024-06-16T09:07:04.000Z 2024-06-16 09:07:04
817189 AgVPjwh4gNY8gjsSZSI8kPEzDsQ2 steve@greenleaf-tdg.com unknown 4.90 87 137 271 53.81609339 -1.65125280 11.5600 2024-06-16T09:06:25.034Z 2024-06-16 09:06:25
817188 AgVPjwh4gNY8gjsSZSI8kPEzDsQ2 steve@greenleaf-tdg.com unknown 5.20 93 142 297 53.81610541 -1.64743962 10.0200 2024-06-16T09:06:02.000Z 2024-06-16 09:06:02
817187 AgVPjwh4gNY8gjsSZSI8kPEzDsQ2 steve@greenleaf-tdg.com unknown 11.10 104 154 -1 53.81491590 -1.64390021 -1.0000 2024-06-16T08:52:49.629Z 2024-06-16 08:52:50
817186 AgVPjwh4gNY8gjsSZSI8kPEzDsQ2 steve@greenleaf-tdg.com unknown 4.80 106 156 49 53.81485508 -1.64388331 0.9300 2024-06-16T08:46:02.000Z 2024-06-16 08:46:02
817185 AgVPjwh4gNY8gjsSZSI8kPEzDsQ2 steve@greenleaf-tdg.com unknown 4.80 106 156 51 53.81484959 -1.64389739 0.9000 2024-06-16T08:46:01.024Z 2024-06-16 08:46:02
817184 AgVPjwh4gNY8gjsSZSI8kPEzDsQ2 steve@greenleaf-tdg.com unknown 7.40 114 164 44 53.81341844 -1.64572040 13.2500 2024-06-16T08:43:45.000Z 2024-06-16 08:43:45
817183 AgVPjwh4gNY8gjsSZSI8kPEzDsQ2 steve@greenleaf-tdg.com unknown 4.80 113 163 328 53.80871156 -1.65019149 7.8000 2024-06-16T08:42:10.000Z 2024-06-16 08:42:10
817182 AgVPjwh4gNY8gjsSZSI8kPEzDsQ2 steve@greenleaf-tdg.com unknown 5.00 119 169 222 53.81140066 -1.64876094 13.7500 2024-06-16T08:38:46.040Z 2024-06-16 08:38:46
817181 AgVPjwh4gNY8gjsSZSI8kPEzDsQ2 steve@greenleaf-tdg.com unknown 4.90 117 166 222 53.81287274 -1.64654209 13.2600 2024-06-16T08:38:30.000Z 2024-06-16 08:38:30
817180 AgVPjwh4gNY8gjsSZSI8kPEzDsQ2 steve@greenleaf-tdg.com unknown 11.10 108 158 -1 53.81491697 -1.64389917 -1.0000 2024-06-15T18:36:05.557Z 2024-06-15 18:36:05
817179 AgVPjwh4gNY8gjsSZSI8kPEzDsQ2 steve@greenleaf-tdg.com unknown 4.80 106 156 298 53.81498294 -1.64387360 1.0100 2024-06-15T18:28:06.018Z 2024-06-15 18:28:06
817178 AgVPjwh4gNY8gjsSZSI8kPEzDsQ2 steve@greenleaf-tdg.com unknown 4.90 104 153 43 53.81552008 -1.64285855 0.8900 2024-06-15T18:26:20.000Z 2024-06-15 18:26:20
817177 AgVPjwh4gNY8gjsSZSI8kPEzDsQ2 steve@greenleaf-tdg.com unknown 4.80 117 167 42 53.81207955 -1.64781061 13.2600 2024-06-15T18:24:46.000Z 2024-06-15 18:24:46
817176 AgVPjwh4gNY8gjsSZSI8kPEzDsQ2 steve@greenleaf-tdg.com unknown 4.80 110 159 10 53.80845494 -1.64761650 5.8300 2024-06-15T18:23:52.000Z 2024-06-15 18:23:52
817175 AgVPjwh4gNY8gjsSZSI8kPEzDsQ2 steve@greenleaf-tdg.com unknown 4.80 107 157 280 53.80697826 -1.64223384 13.0400 2024-06-15T18:23:05.036Z 2024-06-15 18:23:05
817174 AgVPjwh4gNY8gjsSZSI8kPEzDsQ2 steve@greenleaf-tdg.com unknown 4.60 111 161 37 53.80591327 -1.63625428 10.2700 2024-06-15T18:22:23.000Z 2024-06-15 18:22:23
817173 AgVPjwh4gNY8gjsSZSI8kPEzDsQ2 steve@greenleaf-tdg.com unknown 4.80 93 143 324 53.80412436 -1.63665861 1.4900 2024-06-15T18:20:50.000Z 2024-06-15 18:20:50
817172 AgVPjwh4gNY8gjsSZSI8kPEzDsQ2 steve@greenleaf-tdg.com unknown 24.10 89 139 -1 53.80390044 -1.63657892 1.1000 2024-06-15T18:16:29.032Z 2024-06-15 18:16:29
817171 AgVPjwh4gNY8gjsSZSI8kPEzDsQ2 steve@greenleaf-tdg.com unknown 4.80 86 136 317 53.80349994 -1.63837477 15.1900 2024-06-15T18:14:05.001Z 2024-06-15 18:14:05
817170 AgVPjwh4gNY8gjsSZSI8kPEzDsQ2 steve@greenleaf-tdg.com unknown 4.80 62 112 321 53.79914385 -1.62854588 17.2600 2024-06-15T18:13:25.001Z 2024-06-15 18:13:25
817169 AgVPjwh4gNY8gjsSZSI8kPEzDsQ2 steve@greenleaf-tdg.com unknown 4.80 65 114 348 53.79292197 -1.62227564 13.5000 2024-06-15T18:12:23.002Z 2024-06-15 18:12:23
817168 AgVPjwh4gNY8gjsSZSI8kPEzDsQ2 steve@greenleaf-tdg.com unknown 4.80 106 156 357 53.78836366 -1.62208701 14.0000 2024-06-15T18:11:28.042Z 2024-06-15 18:11:28
817167 AgVPjwh4gNY8gjsSZSI8kPEzDsQ2 steve@greenleaf-tdg.com unknown 4.80 116 166 37 53.78568797 -1.62189701 8.4500 2024-06-15T18:10:45.000Z 2024-06-15 18:10:45
817166 AgVPjwh4gNY8gjsSZSI8kPEzDsQ2 steve@greenleaf-tdg.com unknown 37.30 116 166 -1 53.78344145 -1.62214197 -1.0000 2024-06-15T12:59:24.138Z 2024-06-15 12:59:26
817165 AgVPjwh4gNY8gjsSZSI8kPEzDsQ2 steve@greenleaf-tdg.com unknown 37.30 116 166 -1 53.78344145 -1.62214197 -1.0000 2024-06-15T12:54:15.149Z 2024-06-15 12:54:15
817164 AgVPjwh4gNY8gjsSZSI8kPEzDsQ2 steve@greenleaf-tdg.com unknown 37.30 116 166 -1 53.78344145 -1.62214197 -1.0000 2024-06-15T12:54:11.158Z 2024-06-15 12:54:15
817163 AgVPjwh4gNY8gjsSZSI8kPEzDsQ2 steve@greenleaf-tdg.com unknown 41.20 125 175 231 53.78362466 -1.62255683 1.4900 2024-06-15T12:52:03.146Z 2024-06-15 12:52:04
817162 AgVPjwh4gNY8gjsSZSI8kPEzDsQ2 steve@greenleaf-tdg.com unknown 41.20 125 175 231 53.78362466 -1.62255683 1.4900 2024-06-15T12:52:01.000Z 2024-06-15 12:52:04
817161 AgVPjwh4gNY8gjsSZSI8kPEzDsQ2 steve@greenleaf-tdg.com unknown 7.90 115 165 -1 53.78373153 -1.62202081 1.1900 2024-06-15T12:45:18.020Z 2024-06-15 12:45:18
817160 AgVPjwh4gNY8gjsSZSI8kPEzDsQ2 steve@greenleaf-tdg.com unknown 24.80 115 165 173 53.78334313 -1.62212565 0.0000 2024-06-15T12:41:14.141Z 2024-06-15 12:41:14
817159 AgVPjwh4gNY8gjsSZSI8kPEzDsQ2 steve@greenleaf-tdg.com unknown 10.70 115 164 173 53.78376453 -1.62210613 1.0000 2024-06-15T12:37:40.000Z 2024-06-15 12:38:26
817158 AgVPjwh4gNY8gjsSZSI8kPEzDsQ2 steve@greenleaf-tdg.com unknown 8.70 115 164 173 53.78377206 -1.62210766 1.0400 2024-06-15T12:37:39.031Z 2024-06-15 12:38:26
817157 AgVPjwh4gNY8gjsSZSI8kPEzDsQ2 steve@greenleaf-tdg.com unknown 8.80 114 163 163 53.78650782 -1.62123720 6.4200 2024-06-15T12:34:31.000Z 2024-06-15 12:34:31
817156 AgVPjwh4gNY8gjsSZSI8kPEzDsQ2 steve@greenleaf-tdg.com unknown 4.80 69 119 184 53.79190785 -1.62204186 9.5400 2024-06-15T12:33:05.000Z 2024-06-15 12:33:05
817155 AgVPjwh4gNY8gjsSZSI8kPEzDsQ2 steve@greenleaf-tdg.com unknown 4.90 56 105 162 53.79420118 -1.62128273 5.7800 2024-06-15T12:32:38.049Z 2024-06-15 12:32:38
817154 AgVPjwh4gNY8gjsSZSI8kPEzDsQ2 steve@greenleaf-tdg.com unknown 4.80 61 110 136 53.79542313 -1.62342431 18.2500 2024-06-15T12:32:18.000Z 2024-06-15 12:32:18
817153 AgVPjwh4gNY8gjsSZSI8kPEzDsQ2 steve@greenleaf-tdg.com unknown 4.90 73 122 133 53.80126695 -1.63061213 14.9300 2024-06-15T12:31:20.000Z 2024-06-15 12:31:20
817152 AgVPjwh4gNY8gjsSZSI8kPEzDsQ2 steve@greenleaf-tdg.com unknown 4.90 112 162 99 53.80663265 -1.63871252 15.0500 2024-06-15T12:29:09.000Z 2024-06-15 12:29:09
817151 AgVPjwh4gNY8gjsSZSI8kPEzDsQ2 steve@greenleaf-tdg.com unknown 4.80 108 157 190 53.80781761 -1.64776688 9.3200 2024-06-15T12:28:24.000Z 2024-06-15 12:28:24
817150 AgVPjwh4gNY8gjsSZSI8kPEzDsQ2 steve@greenleaf-tdg.com unknown 4.80 118 168 158 53.81069753 -1.64836534 10.1400 2024-06-15T12:27:38.035Z 2024-06-15 12:27:38
817149 AgVPjwh4gNY8gjsSZSI8kPEzDsQ2 steve@greenleaf-tdg.com unknown 3.70 109 159 224 53.81314517 -1.64608223 13.2100 2024-06-15T12:27:08.000Z 2024-06-15 12:27:08
817148 AgVPjwh4gNY8gjsSZSI8kPEzDsQ2 steve@greenleaf-tdg.com unknown 4.80 102 151 234 53.81485609 -1.64388735 3.0500 2024-06-15T12:26:08.000Z 2024-06-15 12:26:12
817147 AgVPjwh4gNY8gjsSZSI8kPEzDsQ2 steve@greenleaf-tdg.com unknown 9.50 106 156 340 53.81491160 -1.64397030 0.2800 2024-06-15T12:20:57.048Z 2024-06-15 12:20:57
817146 AgVPjwh4gNY8gjsSZSI8kPEzDsQ2 steve@greenleaf-tdg.com unknown 5.10 108 157 106 53.81464959 -1.64466088 5.1800 2024-06-15T12:18:21.042Z 2024-06-15 12:18:21
817145 AgVPjwh4gNY8gjsSZSI8kPEzDsQ2 steve@greenleaf-tdg.com unknown 5.00 113 163 42 53.81403876 -1.64476587 13.2800 2024-06-15T12:17:54.000Z 2024-06-15 12:17:54
817144 AgVPjwh4gNY8gjsSZSI8kPEzDsQ2 steve@greenleaf-tdg.com unknown 4.90 107 157 280 53.80697942 -1.64231223 16.6300 2024-06-15T12:15:32.000Z 2024-06-15 12:15:32
817143 AgVPjwh4gNY8gjsSZSI8kPEzDsQ2 steve@greenleaf-tdg.com unknown 4.80 106 155 38 53.80570389 -1.63650644 2.6100 2024-06-15T12:14:12.000Z 2024-06-15 12:14:12
817142 AgVPjwh4gNY8gjsSZSI8kPEzDsQ2 steve@greenleaf-tdg.com unknown 7.50 100 150 46 53.80539889 -1.63695697 7.1700 2024-06-15T12:13:21.033Z 2024-06-15 12:13:21
817141 AgVPjwh4gNY8gjsSZSI8kPEzDsQ2 steve@greenleaf-tdg.com unknown 9.50 85 135 314 53.80211114 -1.63615197 20.9300 2024-06-15T12:12:30.000Z 2024-06-15 12:12:31
817140 AgVPjwh4gNY8gjsSZSI8kPEzDsQ2 steve@greenleaf-tdg.com unknown 4.90 63 112 317 53.79743848 -1.62677453 14.0900 2024-06-15T12:11:26.000Z 2024-06-15 12:11:27
817139 AgVPjwh4gNY8gjsSZSI8kPEzDsQ2 steve@greenleaf-tdg.com unknown 5.80 78 127 4 53.79106544 -1.62227548 10.2800 2024-06-15T12:08:48.000Z 2024-06-15 12:08:48
817138 AgVPjwh4gNY8gjsSZSI8kPEzDsQ2 steve@greenleaf-tdg.com unknown 5.20 109 158 3 53.78815740 -1.62210816 10.2800 2024-06-15T12:08:20.034Z 2024-06-15 12:08:20
817137 AgVPjwh4gNY8gjsSZSI8kPEzDsQ2 steve@greenleaf-tdg.com unknown 5.30 115 165 32 53.78564128 -1.62196220 8.3400 2024-06-15T12:07:35.000Z 2024-06-15 12:07:35
817136 AgVPjwh4gNY8gjsSZSI8kPEzDsQ2 steve@greenleaf-tdg.com unknown 35.00 119 169 -1 53.78357799 -1.62353655 -1.0000 2024-06-15T09:17:50.701Z 2024-06-15 09:17:50
817135 AgVPjwh4gNY8gjsSZSI8kPEzDsQ2 steve@greenleaf-tdg.com unknown 35.00 119 169 -1 53.78357799 -1.62353655 -1.0000 2024-06-15T09:12:39.675Z 2024-06-15 09:12:39
817134 AgVPjwh4gNY8gjsSZSI8kPEzDsQ2 steve@greenleaf-tdg.com unknown 4.80 121 171 82 53.78374849 -1.62386406 0.1000 2024-06-15T09:09:26.000Z 2024-06-15 09:09:26
817133 AgVPjwh4gNY8gjsSZSI8kPEzDsQ2 steve@greenleaf-tdg.com unknown 4.80 121 171 82 53.78375153 -1.62385963 0.0700 2024-06-15T09:09:25.026Z 2024-06-15 09:09:25
817132 AgVPjwh4gNY8gjsSZSI8kPEzDsQ2 steve@greenleaf-tdg.com unknown 4.80 114 163 163 53.78647196 -1.62124176 8.0000 2024-06-15T09:07:25.000Z 2024-06-15 09:07:26
817131 AgVPjwh4gNY8gjsSZSI8kPEzDsQ2 steve@greenleaf-tdg.com unknown 4.90 61 111 136 53.79539666 -1.62335822 18.9900 2024-06-15T09:05:17.000Z 2024-06-15 09:05:17
817130 AgVPjwh4gNY8gjsSZSI8kPEzDsQ2 steve@greenleaf-tdg.com unknown 4.80 70 120 165 53.80060983 -1.63013466 17.2800 2024-06-15T09:04:24.033Z 2024-06-15 09:04:28
817129 AgVPjwh4gNY8gjsSZSI8kPEzDsQ2 steve@greenleaf-tdg.com unknown 4.90 72 122 133 53.80127903 -1.63064637 16.4400 2024-06-15T09:04:19.000Z 2024-06-15 09:04:19
817128 AgVPjwh4gNY8gjsSZSI8kPEzDsQ2 steve@greenleaf-tdg.com unknown 4.70 97 146 221 53.80484991 -1.63774336 8.4700 2024-06-15T09:03:23.000Z 2024-06-15 09:03:23
817127 AgVPjwh4gNY8gjsSZSI8kPEzDsQ2 steve@greenleaf-tdg.com unknown 4.70 115 165 98 53.80637892 -1.63606821 2.1700 2024-06-15T09:02:46.000Z 2024-06-15 09:02:46
817126 AgVPjwh4gNY8gjsSZSI8kPEzDsQ2 steve@greenleaf-tdg.com unknown 4.70 109 159 100 53.80695898 -1.64167305 14.5500 2024-06-15T09:01:12.000Z 2024-06-15 09:01:12
817125 AgVPjwh4gNY8gjsSZSI8kPEzDsQ2 steve@greenleaf-tdg.com unknown 4.70 108 157 190 53.80770168 -1.64779176 4.3900 2024-06-15T09:00:38.000Z 2024-06-15 09:00:38
817124 AgVPjwh4gNY8gjsSZSI8kPEzDsQ2 steve@greenleaf-tdg.com unknown 4.70 119 169 222 53.81146232 -1.64866382 9.5000 2024-06-15T08:59:23.036Z 2024-06-15 08:59:23
817123 AgVPjwh4gNY8gjsSZSI8kPEzDsQ2 steve@greenleaf-tdg.com unknown 4.70 116 165 224 53.81304322 -1.64628745 14.9300 2024-06-15T08:59:06.000Z 2024-06-15 08:59:06
817122 AgVPjwh4gNY8gjsSZSI8kPEzDsQ2 steve@greenleaf-tdg.com unknown 11.10 107 157 -1 53.81491525 -1.64390270 -1.0000 2024-06-14T21:31:10.473Z 2024-06-14 21:31:10
817121 AgVPjwh4gNY8gjsSZSI8kPEzDsQ2 steve@greenleaf-tdg.com unknown 17.70 107 156 -1 53.81497429 -1.64385229 0.2600 2024-06-14T21:25:31.151Z 2024-06-14 21:25:31
817120 AgVPjwh4gNY8gjsSZSI8kPEzDsQ2 steve@greenleaf-tdg.com unknown 4.80 105 154 43 53.81551749 -1.64290090 0.3900 2024-06-14T21:23:37.000Z 2024-06-14 21:23:37
817119 AgVPjwh4gNY8gjsSZSI8kPEzDsQ2 steve@greenleaf-tdg.com unknown 4.80 105 154 223 53.81565381 -1.64203225 14.9600 2024-06-14T21:21:55.000Z 2024-06-14 21:21:55
817118 AgVPjwh4gNY8gjsSZSI8kPEzDsQ2 steve@greenleaf-tdg.com unknown 4.90 106 155 262 53.81986874 -1.63201248 14.9400 2024-06-14T21:20:55.000Z 2024-06-14 21:20:55
817117 AgVPjwh4gNY8gjsSZSI8kPEzDsQ2 steve@greenleaf-tdg.com unknown 4.80 91 141 262 53.82030477 -1.62666228 13.9500 2024-06-14T21:20:31.042Z 2024-06-14 21:20:31
817116 AgVPjwh4gNY8gjsSZSI8kPEzDsQ2 steve@greenleaf-tdg.com unknown 4.80 69 119 295 53.82000350 -1.61973975 14.0900 2024-06-14T21:19:57.000Z 2024-06-14 21:19:57
817115 AgVPjwh4gNY8gjsSZSI8kPEzDsQ2 steve@greenleaf-tdg.com unknown 4.70 45 94 317 53.81644690 -1.60908789 12.6200 2024-06-14T21:18:51.000Z 2024-06-14 21:18:51
817114 AgVPjwh4gNY8gjsSZSI8kPEzDsQ2 steve@greenleaf-tdg.com unknown 4.80 45 94 332 53.81360013 -1.59980718 12.5200 2024-06-14T21:16:51.000Z 2024-06-14 21:16:51
817113 AgVPjwh4gNY8gjsSZSI8kPEzDsQ2 steve@greenleaf-tdg.com unknown 4.70 40 89 301 53.80995866 -1.59308213 11.9100 2024-06-14T21:15:56.000Z 2024-06-14 21:15:56
817112 AgVPjwh4gNY8gjsSZSI8kPEzDsQ2 steve@greenleaf-tdg.com unknown 4.70 36 85 301 53.80853266 -1.58909091 11.7500 2024-06-14T21:15:30.041Z 2024-06-14 21:15:30
817111 AgVPjwh4gNY8gjsSZSI8kPEzDsQ2 steve@greenleaf-tdg.com unknown 4.80 36 85 300 53.80716547 -1.58514741 9.4200 2024-06-14T21:15:00.000Z 2024-06-14 21:15:00
817110 AgVPjwh4gNY8gjsSZSI8kPEzDsQ2 steve@greenleaf-tdg.com unknown 35.00 35 84 -1 53.80613383 -1.58171103 -1.0000 2024-06-14T19:15:20.089Z 2024-06-14 19:15:22
817109 AgVPjwh4gNY8gjsSZSI8kPEzDsQ2 steve@greenleaf-tdg.com unknown 7.10 35 83 77 53.80621598 -1.58143717 0.0000 2024-06-14T19:10:00.684Z 2024-06-14 19:10:00
817108 AgVPjwh4gNY8gjsSZSI8kPEzDsQ2 steve@greenleaf-tdg.com unknown 4.80 36 85 107 53.80666499 -1.58211093 4.7900 2024-06-14T19:07:42.035Z 2024-06-14 19:07:42
817107 AgVPjwh4gNY8gjsSZSI8kPEzDsQ2 steve@greenleaf-tdg.com unknown 4.70 33 82 292 53.80491263 -1.57761799 9.2100 2024-06-14T19:06:09.000Z 2024-06-14 19:06:10
817106 AgVPjwh4gNY8gjsSZSI8kPEzDsQ2 steve@greenleaf-tdg.com unknown 4.90 32 81 307 53.80089763 -1.56804020 15.2800 2024-06-14T19:04:20.000Z 2024-06-14 19:04:20
817105 AgVPjwh4gNY8gjsSZSI8kPEzDsQ2 steve@greenleaf-tdg.com unknown 4.70 32 81 322 53.79748831 -1.56088933 10.9200 2024-06-14T19:03:39.000Z 2024-06-14 19:03:39
817104 AgVPjwh4gNY8gjsSZSI8kPEzDsQ2 steve@greenleaf-tdg.com unknown 4.80 32 81 279 53.79663208 -1.55497691 6.8600 2024-06-14T19:03:02.000Z 2024-06-14 19:03:03
817103 AgVPjwh4gNY8gjsSZSI8kPEzDsQ2 steve@greenleaf-tdg.com unknown 4.80 31 80 102 53.79676950 -1.55538341 6.2700 2024-06-14T18:59:33.000Z 2024-06-14 18:59:33
817102 AgVPjwh4gNY8gjsSZSI8kPEzDsQ2 steve@greenleaf-tdg.com unknown 4.80 31 80 119 53.79908351 -1.56318700 14.3900 2024-06-14T18:57:57.000Z 2024-06-14 18:57:57
817101 AgVPjwh4gNY8gjsSZSI8kPEzDsQ2 steve@greenleaf-tdg.com unknown 4.80 33 82 124 53.80046258 -1.56630990 16.8200 2024-06-14T18:57:41.037Z 2024-06-14 18:57:41
817100 AgVPjwh4gNY8gjsSZSI8kPEzDsQ2 steve@greenleaf-tdg.com unknown 4.80 32 81 130 53.80332273 -1.57311863 15.5800 2024-06-14T18:56:54.000Z 2024-06-14 18:56:54
817099 AgVPjwh4gNY8gjsSZSI8kPEzDsQ2 steve@greenleaf-tdg.com unknown 4.80 36 85 118 53.80681527 -1.58391214 12.9400 2024-06-14T18:55:19.000Z 2024-06-14 18:55:19
817098 AgVPjwh4gNY8gjsSZSI8kPEzDsQ2 steve@greenleaf-tdg.com unknown 4.80 41 90 121 53.81052356 -1.59444478 12.9200 2024-06-14T18:54:12.000Z 2024-06-14 18:54:12
817097 AgVPjwh4gNY8gjsSZSI8kPEzDsQ2 steve@greenleaf-tdg.com unknown 4.80 45 94 143 53.81452264 -1.60070781 7.8600 2024-06-14T18:53:19.000Z 2024-06-14 18:53:19
817096 AgVPjwh4gNY8gjsSZSI8kPEzDsQ2 steve@greenleaf-tdg.com unknown 4.80 38 87 62 53.81528001 -1.60240326 0.0000 2024-06-14T18:52:42.000Z 2024-06-14 18:52:42
817095 AgVPjwh4gNY8gjsSZSI8kPEzDsQ2 steve@greenleaf-tdg.com unknown 4.80 38 87 62 53.81528001 -1.60240326 0.0000 2024-06-14T18:52:41.032Z 2024-06-14 18:52:41
817094 AgVPjwh4gNY8gjsSZSI8kPEzDsQ2 steve@greenleaf-tdg.com unknown 4.90 44 94 76 53.81588244 -1.60659521 11.0100 2024-06-14T18:50:45.000Z 2024-06-14 18:50:45
817093 AgVPjwh4gNY8gjsSZSI8kPEzDsQ2 steve@greenleaf-tdg.com unknown 9.50 60 110 118 53.81881107 -1.61532236 17.3000 2024-06-14T18:49:09.000Z 2024-06-14 18:49:09
817092 AgVPjwh4gNY8gjsSZSI8kPEzDsQ2 steve@greenleaf-tdg.com unknown 6.70 100 150 82 53.82005120 -1.63045120 19.2700 2024-06-14T18:48:12.000Z 2024-06-14 18:48:12
817091 AgVPjwh4gNY8gjsSZSI8kPEzDsQ2 steve@greenleaf-tdg.com unknown 5.10 104 153 53 53.81822496 -1.63731053 16.2400 2024-06-14T18:47:41.032Z 2024-06-14 18:47:41
817090 AgVPjwh4gNY8gjsSZSI8kPEzDsQ2 steve@greenleaf-tdg.com unknown 5.30 101 150 43 53.81641550 -1.64093635 5.4800 2024-06-14T18:46:43.000Z 2024-06-14 18:46:43
817089 AgVPjwh4gNY8gjsSZSI8kPEzDsQ2 steve@greenleaf-tdg.com unknown 4.10 104 153 -1 53.81497930 -1.64393295 0.0000 2024-06-14T16:46:28.006Z 2024-06-14 16:46:28
817088 AgVPjwh4gNY8gjsSZSI8kPEzDsQ2 steve@greenleaf-tdg.com unknown 4.70 105 154 21 53.81533880 -1.64318161 0.1300 2024-06-14T16:43:49.000Z 2024-06-14 16:43:49
817087 AgVPjwh4gNY8gjsSZSI8kPEzDsQ2 steve@greenleaf-tdg.com unknown 4.70 105 155 21 53.81534675 -1.64316703 0.1300 2024-06-14T16:43:48.042Z 2024-06-14 16:43:48
817086 AgVPjwh4gNY8gjsSZSI8kPEzDsQ2 steve@greenleaf-tdg.com unknown 4.80 116 165 42 53.81286724 -1.64661080 13.5900 2024-06-14T16:41:56.000Z 2024-06-14 16:41:56
817085 AgVPjwh4gNY8gjsSZSI8kPEzDsQ2 steve@greenleaf-tdg.com unknown 4.80 107 156 281 53.80743221 -1.64668224 12.1800 2024-06-14T16:40:14.000Z 2024-06-14 16:40:14
817084 AgVPjwh4gNY8gjsSZSI8kPEzDsQ2 steve@greenleaf-tdg.com unknown 4.90 114 164 280 53.80646724 -1.63753980 11.6500 2024-06-14T16:39:27.000Z 2024-06-14 16:39:27
817083 AgVPjwh4gNY8gjsSZSI8kPEzDsQ2 steve@greenleaf-tdg.com unknown 4.80 114 164 26 53.80610208 -1.63605729 0.1400 2024-06-14T16:38:49.000Z 2024-06-14 16:38:49
817082 AgVPjwh4gNY8gjsSZSI8kPEzDsQ2 steve@greenleaf-tdg.com unknown 4.70 114 164 26 53.80610157 -1.63605708 0.5500 2024-06-14T16:38:48.035Z 2024-06-14 16:38:48
817081 AgVPjwh4gNY8gjsSZSI8kPEzDsQ2 steve@greenleaf-tdg.com unknown 8.50 85 135 313 53.80349341 -1.63842745 16.9400 2024-06-14T16:37:29.000Z 2024-06-14 16:37:29
817080 AgVPjwh4gNY8gjsSZSI8kPEzDsQ2 steve@greenleaf-tdg.com unknown 4.80 74 123 312 53.80049531 -1.63083390 10.0400 2024-06-14T16:36:54.000Z 2024-06-14 16:36:54
817079 AgVPjwh4gNY8gjsSZSI8kPEzDsQ2 steve@greenleaf-tdg.com unknown 4.80 63 112 317 53.79761575 -1.62704000 3.6600 2024-06-14T16:36:16.000Z 2024-06-14 16:36:16
817078 AgVPjwh4gNY8gjsSZSI8kPEzDsQ2 steve@greenleaf-tdg.com unknown 4.80 78 127 4 53.79100826 -1.62223787 13.3500 2024-06-14T16:34:08.000Z 2024-06-14 16:34:08
817077 AgVPjwh4gNY8gjsSZSI8kPEzDsQ2 steve@greenleaf-tdg.com unknown 5.00 109 159 3 53.78820248 -1.62209292 11.2100 2024-06-14T16:33:47.037Z 2024-06-14 16:33:47
817076 AgVPjwh4gNY8gjsSZSI8kPEzDsQ2 steve@greenleaf-tdg.com unknown 4.60 117 167 26 53.78554959 -1.62203250 9.2300 2024-06-14T16:33:02.000Z 2024-06-14 16:33:02
817075 AgVPjwh4gNY8gjsSZSI8kPEzDsQ2 steve@greenleaf-tdg.com unknown 35.00 117 166 -1 53.78324607 -1.62210274 -1.0000 2024-06-14T15:19:28.940Z 2024-06-14 15:19:31
817074 AgVPjwh4gNY8gjsSZSI8kPEzDsQ2 steve@greenleaf-tdg.com unknown 4.80 115 164 177 53.78312337 -1.62177589 0.0000 2024-06-14T15:14:09.938Z 2024-06-14 15:14:10
817073 AgVPjwh4gNY8gjsSZSI8kPEzDsQ2 steve@greenleaf-tdg.com unknown 8.70 115 164 140 53.78344650 -1.62181646 1.0600 2024-06-14T15:12:19.890Z 2024-06-14 15:12:20
817072 AgVPjwh4gNY8gjsSZSI8kPEzDsQ2 steve@greenleaf-tdg.com unknown 35.00 117 167 -1 53.78355326 -1.62355536 -1.0000 2024-06-14T10:08:53.912Z 2024-06-14 10:08:56
817071 AgVPjwh4gNY8gjsSZSI8kPEzDsQ2 steve@greenleaf-tdg.com unknown 7.60 129 179 -1 53.78355308 -1.62321137 0.0000 2024-06-14T10:03:39.000Z 2024-06-14 10:03:39
817070 AgVPjwh4gNY8gjsSZSI8kPEzDsQ2 steve@greenleaf-tdg.com unknown 4.80 120 169 40 53.78383232 -1.62371989 0.2800 2024-06-14T09:56:47.000Z 2024-06-14 09:56:48
817069 AgVPjwh4gNY8gjsSZSI8kPEzDsQ2 steve@greenleaf-tdg.com unknown 4.90 115 165 345 53.77861874 -1.62299038 10.7600 2024-06-14T09:51:14.000Z 2024-06-14 09:51:14
817068 AgVPjwh4gNY8gjsSZSI8kPEzDsQ2 steve@greenleaf-tdg.com unknown 4.90 95 145 240 53.77725402 -1.61532405 17.1300 2024-06-14T09:49:55.035Z 2024-06-14 09:49:55
817067 AgVPjwh4gNY8gjsSZSI8kPEzDsQ2 steve@greenleaf-tdg.com unknown 4.80 82 132 246 53.77864218 -1.61082582 15.3300 2024-06-14T09:49:35.000Z 2024-06-14 09:49:35
817066 AgVPjwh4gNY8gjsSZSI8kPEzDsQ2 steve@greenleaf-tdg.com unknown 4.80 50 99 263 53.78118194 -1.59924156 14.9900 2024-06-14T09:48:13.000Z 2024-06-14 09:48:13
817065 AgVPjwh4gNY8gjsSZSI8kPEzDsQ2 steve@greenleaf-tdg.com unknown 4.80 42 91 298 53.77932089 -1.58751265 15.6100 2024-06-14T09:47:10.000Z 2024-06-14 09:47:10
817064 AgVPjwh4gNY8gjsSZSI8kPEzDsQ2 steve@greenleaf-tdg.com unknown 4.80 44 92 338 53.77327900 -1.58077395 15.6000 2024-06-14T09:46:02.000Z 2024-06-14 09:46:02
817063 AgVPjwh4gNY8gjsSZSI8kPEzDsQ2 steve@greenleaf-tdg.com unknown 4.80 46 95 322 53.76828621 -1.57732373 10.9700 2024-06-14T09:45:11.000Z 2024-06-14 09:45:11
817062 AgVPjwh4gNY8gjsSZSI8kPEzDsQ2 steve@greenleaf-tdg.com unknown 4.80 49 98 347 53.76594087 -1.57545159 21.3000 2024-06-14T09:44:54.042Z 2024-06-14 09:44:54
817061 AgVPjwh4gNY8gjsSZSI8kPEzDsQ2 steve@greenleaf-tdg.com unknown 4.70 55 104 349 53.76014574 -1.57080368 21.0700 2024-06-14T09:43:03.000Z 2024-06-14 09:43:04
817060 AgVPjwh4gNY8gjsSZSI8kPEzDsQ2 steve@greenleaf-tdg.com unknown 4.70 71 120 347 53.74926606 -1.56877363 27.3600 2024-06-14T09:41:55.000Z 2024-06-14 09:41:55
817059 AgVPjwh4gNY8gjsSZSI8kPEzDsQ2 steve@greenleaf-tdg.com unknown 4.80 110 159 31 53.73852200 -1.57192661 25.0400 2024-06-14T09:41:02.000Z 2024-06-14 09:41:02
817058 AgVPjwh4gNY8gjsSZSI8kPEzDsQ2 steve@greenleaf-tdg.com unknown 4.80 128 177 21 53.73540273 -1.57556085 2.6600 2024-06-14T09:40:28.000Z 2024-06-14 09:40:29
817057 AgVPjwh4gNY8gjsSZSI8kPEzDsQ2 steve@greenleaf-tdg.com unknown 4.80 136 185 17 53.73344502 -1.57804063 9.9800 2024-06-14T09:39:54.034Z 2024-06-14 09:40:29
817056 AgVPjwh4gNY8gjsSZSI8kPEzDsQ2 steve@greenleaf-tdg.com unknown 4.70 145 194 91 53.73199389 -1.58263095 16.8800 2024-06-14T09:39:00.000Z 2024-06-14 09:40:28
817055 AgVPjwh4gNY8gjsSZSI8kPEzDsQ2 steve@greenleaf-tdg.com unknown 35.00 139 188 -1 53.73326187 -1.58613499 -1.0000 2024-06-14T08:14:38.878Z 2024-06-14 09:40:28
817054 AgVPjwh4gNY8gjsSZSI8kPEzDsQ2 steve@greenleaf-tdg.com unknown 35.00 139 188 -1 53.73326601 -1.58613228 -1.0000 2024-06-14T08:09:18.195Z 2024-06-14 08:09:25
817053 AgVPjwh4gNY8gjsSZSI8kPEzDsQ2 steve@greenleaf-tdg.com unknown 35.00 139 188 -1 53.73326601 -1.58613228 -1.0000 2024-06-14T08:09:15.051Z 2024-06-14 08:09:24
817052 AgVPjwh4gNY8gjsSZSI8kPEzDsQ2 steve@greenleaf-tdg.com unknown 4.70 153 202 310 53.73292708 -1.58606205 0.6800 2024-06-14T08:00:53.000Z 2024-06-14 08:01:43
817051 AgVPjwh4gNY8gjsSZSI8kPEzDsQ2 steve@greenleaf-tdg.com unknown 4.70 143 192 102 53.73282028 -1.58559996 1.6000 2024-06-14T07:58:07.000Z 2024-06-14 07:58:07
817050 AgVPjwh4gNY8gjsSZSI8kPEzDsQ2 steve@greenleaf-tdg.com unknown 4.70 143 192 102 53.73282162 -1.58561031 1.8100 2024-06-14T07:58:06.054Z 2024-06-14 07:58:06
817049 AgVPjwh4gNY8gjsSZSI8kPEzDsQ2 steve@greenleaf-tdg.com unknown 4.70 145 194 275 53.73184060 -1.58277135 18.8200 2024-06-14T07:56:12.000Z 2024-06-14 07:56:13
817048 AgVPjwh4gNY8gjsSZSI8kPEzDsQ2 steve@greenleaf-tdg.com unknown 4.70 143 192 266 53.73176663 -1.57664547 7.4600 2024-06-14T07:55:45.000Z 2024-06-14 07:55:48
817047 AgVPjwh4gNY8gjsSZSI8kPEzDsQ2 steve@greenleaf-tdg.com unknown 4.70 96 145 193 53.74054980 -1.57050864 22.7100 2024-06-14T07:53:47.000Z 2024-06-14 07:53:47
817046 AgVPjwh4gNY8gjsSZSI8kPEzDsQ2 steve@greenleaf-tdg.com unknown 4.70 77 126 173 53.74708007 -1.56778555 21.7300 2024-06-14T07:53:06.050Z 2024-06-14 07:53:06
817045 AgVPjwh4gNY8gjsSZSI8kPEzDsQ2 steve@greenleaf-tdg.com unknown 4.70 71 120 168 53.74955043 -1.56867397 22.2900 2024-06-14T07:52:53.000Z 2024-06-14 07:52:53
817044 AgVPjwh4gNY8gjsSZSI8kPEzDsQ2 steve@greenleaf-tdg.com unknown 4.70 57 106 169 53.75856535 -1.57047239 19.5200 2024-06-14T07:52:00.000Z 2024-06-14 07:52:00
817043 AgVPjwh4gNY8gjsSZSI8kPEzDsQ2 steve@greenleaf-tdg.com unknown 4.80 51 100 170 53.76531243 -1.57511542 13.8100 2024-06-14T07:51:02.000Z 2024-06-14 07:51:02
817042 AgVPjwh4gNY8gjsSZSI8kPEzDsQ2 steve@greenleaf-tdg.com unknown 4.80 43 92 157 53.77199856 -1.57980778 13.0300 2024-06-14T07:49:56.000Z 2024-06-14 07:49:56
817041 AgVPjwh4gNY8gjsSZSI8kPEzDsQ2 steve@greenleaf-tdg.com unknown 4.80 42 91 148 53.77696149 -1.58348969 10.9200 2024-06-14T07:48:51.000Z 2024-06-14 07:48:51
817040 AgVPjwh4gNY8gjsSZSI8kPEzDsQ2 steve@greenleaf-tdg.com unknown 4.70 43 92 111 53.77996611 -1.58985709 12.1900 2024-06-14T07:48:05.052Z 2024-06-14 07:48:05
817039 AgVPjwh4gNY8gjsSZSI8kPEzDsQ2 steve@greenleaf-tdg.com unknown 4.70 44 93 115 53.78019661 -1.59085687 10.0200 2024-06-14T07:47:59.000Z 2024-06-14 07:47:59
817038 AgVPjwh4gNY8gjsSZSI8kPEzDsQ2 steve@greenleaf-tdg.com unknown 4.70 47 96 121 53.78156174 -1.59647258 5.5400 2024-06-14T07:47:17.000Z 2024-06-14 07:47:17
817037 AgVPjwh4gNY8gjsSZSI8kPEzDsQ2 steve@greenleaf-tdg.com unknown 4.80 50 99 126 53.78311660 -1.60519797 7.6700 2024-06-14T07:45:50.000Z 2024-06-14 07:45:50
817036 AgVPjwh4gNY8gjsSZSI8kPEzDsQ2 steve@greenleaf-tdg.com unknown 4.80 54 103 111 53.78957520 -1.61072205 16.4400 2024-06-14T07:44:50.000Z 2024-06-14 07:44:50
817035 AgVPjwh4gNY8gjsSZSI8kPEzDsQ2 steve@greenleaf-tdg.com unknown 4.80 57 107 137 53.79373365 -1.62070961 13.0100 2024-06-14T07:43:50.000Z 2024-06-14 07:43:50
817034 AgVPjwh4gNY8gjsSZSI8kPEzDsQ2 steve@greenleaf-tdg.com unknown 4.80 60 110 145 53.79770077 -1.62715103 8.9100 2024-06-14T07:43:06.000Z 2024-06-14 07:43:06
817033 AgVPjwh4gNY8gjsSZSI8kPEzDsQ2 steve@greenleaf-tdg.com unknown 4.80 60 110 165 53.79776844 -1.62722443 9.0200 2024-06-14T07:43:05.046Z 2024-06-14 07:43:05
817032 AgVPjwh4gNY8gjsSZSI8kPEzDsQ2 steve@greenleaf-tdg.com unknown 4.80 78 127 106 53.80153473 -1.63379997 16.8500 2024-06-14T07:42:18.000Z 2024-06-14 07:42:18
817031 AgVPjwh4gNY8gjsSZSI8kPEzDsQ2 steve@greenleaf-tdg.com unknown 4.80 109 158 100 53.80697303 -1.64198343 15.1600 2024-06-14T07:39:48.000Z 2024-06-14 07:39:48
817030 AgVPjwh4gNY8gjsSZSI8kPEzDsQ2 steve@greenleaf-tdg.com unknown 4.80 110 159 190 53.80847338 -1.64758918 7.0800 2024-06-14T07:38:54.000Z 2024-06-14 07:38:54
817029 AgVPjwh4gNY8gjsSZSI8kPEzDsQ2 steve@greenleaf-tdg.com unknown 4.80 119 169 222 53.81141605 -1.64869040 8.8600 2024-06-14T07:38:05.045Z 2024-06-14 07:38:05
817028 AgVPjwh4gNY8gjsSZSI8kPEzDsQ2 steve@greenleaf-tdg.com unknown 4.80 115 164 224 53.81368316 -1.64521196 11.0600 2024-06-14T07:37:36.000Z 2024-06-14 07:37:36
817027 AgVPjwh4gNY8gjsSZSI8kPEzDsQ2 steve@greenleaf-tdg.com unknown 4.80 104 154 223 53.81549200 -1.64287684 0.0000 2024-06-13T18:41:14.000Z 2024-06-13 18:41:14
817026 AgVPjwh4gNY8gjsSZSI8kPEzDsQ2 steve@greenleaf-tdg.com unknown 4.80 98 147 139 53.81626876 -1.64223563 5.5200 2024-06-13T18:34:45.000Z 2024-06-13 18:34:45
817025 AgVPjwh4gNY8gjsSZSI8kPEzDsQ2 steve@greenleaf-tdg.com unknown 4.80 97 147 129 53.81631243 -1.64229439 5.7000 2024-06-13T18:34:44.031Z 2024-06-13 18:34:44
817024 AgVPjwh4gNY8gjsSZSI8kPEzDsQ2 steve@greenleaf-tdg.com unknown 4.80 116 165 46 53.81262490 -1.64696183 12.1400 2024-06-13T18:33:26.000Z 2024-06-13 18:33:26
817023 AgVPjwh4gNY8gjsSZSI8kPEzDsQ2 steve@greenleaf-tdg.com unknown 4.80 119 168 336 53.80980771 -1.65099557 6.6300 2024-06-13T18:32:46.000Z 2024-06-13 18:32:46
817022 AgVPjwh4gNY8gjsSZSI8kPEzDsQ2 steve@greenleaf-tdg.com unknown 4.80 105 155 336 53.80497211 -1.64729970 12.1900 2024-06-13T18:30:15.000Z 2024-06-13 18:30:15
817021 AgVPjwh4gNY8gjsSZSI8kPEzDsQ2 steve@greenleaf-tdg.com unknown 4.80 106 155 288 53.80205832 -1.64507744 3.8200 2024-06-13T18:29:43.066Z 2024-06-13 18:29:43
817020 AgVPjwh4gNY8gjsSZSI8kPEzDsQ2 steve@greenleaf-tdg.com unknown 4.80 96 146 235 53.80336965 -1.64171953 12.6500 2024-06-13T18:28:49.000Z 2024-06-13 18:28:49
817019 AgVPjwh4gNY8gjsSZSI8kPEzDsQ2 steve@greenleaf-tdg.com unknown 4.90 73 123 314 53.80032928 -1.63061996 15.3500 2024-06-13T18:27:46.000Z 2024-06-13 18:27:46
817018 AgVPjwh4gNY8gjsSZSI8kPEzDsQ2 steve@greenleaf-tdg.com unknown 4.80 59 109 316 53.79478224 -1.62257453 13.4000 2024-06-13T18:26:40.001Z 2024-06-13 18:26:40
817017 AgVPjwh4gNY8gjsSZSI8kPEzDsQ2 steve@greenleaf-tdg.com unknown 4.80 97 146 355 53.78934631 -1.62222969 10.6300 2024-06-13T18:24:58.002Z 2024-06-13 18:24:58
817016 AgVPjwh4gNY8gjsSZSI8kPEzDsQ2 steve@greenleaf-tdg.com unknown 5.00 113 162 6 53.78781740 -1.62216054 6.1200 2024-06-13T18:24:42.040Z 2024-06-13 18:24:42
817015 AgVPjwh4gNY8gjsSZSI8kPEzDsQ2 steve@greenleaf-tdg.com unknown 4.90 116 165 37 53.78572332 -1.62188299 6.8600 2024-06-13T18:23:57.999Z 2024-06-13 18:23:58
817014 AgVPjwh4gNY8gjsSZSI8kPEzDsQ2 steve@greenleaf-tdg.com unknown 35.00 119 168 -1 53.78356220 -1.62354826 -1.0000 2024-06-13T08:08:48.278Z 2024-06-13 08:08:48
817013 AgVPjwh4gNY8gjsSZSI8kPEzDsQ2 steve@greenleaf-tdg.com unknown 33.60 121 171 -1 53.78334483 -1.62358562 1.3800 2024-06-13T08:02:22.000Z 2024-06-13 08:02:38
817012 AgVPjwh4gNY8gjsSZSI8kPEzDsQ2 steve@greenleaf-tdg.com unknown 29.70 121 171 -1 53.78335933 -1.62358898 1.4000 2024-06-13T08:02:21.031Z 2024-06-13 08:02:35
817011 AgVPjwh4gNY8gjsSZSI8kPEzDsQ2 steve@greenleaf-tdg.com unknown 5.30 96 146 175 53.78935791 -1.62217066 14.4300 2024-06-13T07:59:18.000Z 2024-06-13 07:59:23
817010 AgVPjwh4gNY8gjsSZSI8kPEzDsQ2 steve@greenleaf-tdg.com unknown 4.80 63 113 136 53.79643253 -1.62506597 15.7000 2024-06-13T07:57:50.000Z 2024-06-13 07:57:50
817009 AgVPjwh4gNY8gjsSZSI8kPEzDsQ2 steve@greenleaf-tdg.com unknown 4.80 61 111 145 53.79893662 -1.62810556 13.0000 2024-06-13T07:57:16.051Z 2024-06-13 07:57:18
817008 AgVPjwh4gNY8gjsSZSI8kPEzDsQ2 steve@greenleaf-tdg.com unknown 4.90 78 127 104 53.80154634 -1.63368720 15.7700 2024-06-13T07:56:41.000Z 2024-06-13 07:56:42
817007 AgVPjwh4gNY8gjsSZSI8kPEzDsQ2 steve@greenleaf-tdg.com unknown 4.80 109 159 101 53.80695436 -1.64191193 13.5200 2024-06-13T07:54:31.000Z 2024-06-13 07:54:31
817006 AgVPjwh4gNY8gjsSZSI8kPEzDsQ2 steve@greenleaf-tdg.com unknown 4.70 109 158 193 53.80785804 -1.64779175 6.1500 2024-06-13T07:53:40.000Z 2024-06-13 07:53:40
817005 AgVPjwh4gNY8gjsSZSI8kPEzDsQ2 steve@greenleaf-tdg.com unknown 4.70 119 169 162 53.81079883 -1.64847881 8.1000 2024-06-13T07:52:15.091Z 2024-06-13 07:52:15
817004 AgVPjwh4gNY8gjsSZSI8kPEzDsQ2 steve@greenleaf-tdg.com unknown 4.80 116 165 223 53.81316306 -1.64610228 12.3400 2024-06-13T07:51:43.000Z 2024-06-13 07:51:43
817003 AgVPjwh4gNY8gjsSZSI8kPEzDsQ2 steve@greenleaf-tdg.com unknown 4.40 110 160 -1 53.81494925 -1.64385617 0.0000 2024-06-12T18:42:42.129Z 2024-06-12 18:42:44
817002 AgVPjwh4gNY8gjsSZSI8kPEzDsQ2 steve@greenleaf-tdg.com unknown 8.20 108 157 329 53.81495812 -1.64385879 0.4300 2024-06-12T18:31:45.055Z 2024-06-12 18:31:45
817001 AgVPjwh4gNY8gjsSZSI8kPEzDsQ2 steve@greenleaf-tdg.com unknown 4.90 109 158 276 53.81462548 -1.64457825 7.1400 2024-06-12T18:26:39.000Z 2024-06-12 18:26:39
817000 AgVPjwh4gNY8gjsSZSI8kPEzDsQ2 steve@greenleaf-tdg.com unknown 4.80 109 158 282 53.81462312 -1.64446948 7.3700 2024-06-12T18:26:38.055Z 2024-06-12 18:26:38
816999 AgVPjwh4gNY8gjsSZSI8kPEzDsQ2 steve@greenleaf-tdg.com unknown 4.80 102 151 230 53.81701864 -1.63986427 10.3100 2024-06-12T18:25:51.000Z 2024-06-12 18:25:51
816998 AgVPjwh4gNY8gjsSZSI8kPEzDsQ2 steve@greenleaf-tdg.com unknown 4.90 95 145 262 53.82012923 -1.62879834 14.1000 2024-06-12T18:24:45.000Z 2024-06-12 18:24:45
816997 AgVPjwh4gNY8gjsSZSI8kPEzDsQ2 steve@greenleaf-tdg.com unknown 5.60 63 112 295 53.81911652 -1.61660040 13.2300 2024-06-12T18:23:48.000Z 2024-06-12 18:23:48
816996 AgVPjwh4gNY8gjsSZSI8kPEzDsQ2 steve@greenleaf-tdg.com unknown 4.70 43 92 318 53.81623126 -1.60875540 12.2600 2024-06-12T18:22:54.000Z 2024-06-12 18:22:54
816995 AgVPjwh4gNY8gjsSZSI8kPEzDsQ2 steve@greenleaf-tdg.com unknown 4.80 37 86 287 53.81521559 -1.60415506 8.1600 2024-06-12T18:21:38.051Z 2024-06-12 18:21:38
816994 AgVPjwh4gNY8gjsSZSI8kPEzDsQ2 steve@greenleaf-tdg.com unknown 14.20 44 93 328 53.81407981 -1.60026102 11.1700 2024-06-12T18:20:59.000Z 2024-06-12 18:20:59
816993 AgVPjwh4gNY8gjsSZSI8kPEzDsQ2 steve@greenleaf-tdg.com unknown 4.80 40 89 301 53.81023236 -1.59381542 10.2100 2024-06-12T18:20:02.000Z 2024-06-12 18:20:02
816992 AgVPjwh4gNY8gjsSZSI8kPEzDsQ2 steve@greenleaf-tdg.com unknown 4.80 36 85 300 53.80740705 -1.58588533 10.2200 2024-06-12T18:19:06.000Z 2024-06-12 18:19:06
816991 AgVPjwh4gNY8gjsSZSI8kPEzDsQ2 steve@greenleaf-tdg.com unknown 4.70 35 84 293 53.80490383 -1.57772570 9.3600 2024-06-12T18:18:00.000Z 2024-06-12 18:18:00
816990 AgVPjwh4gNY8gjsSZSI8kPEzDsQ2 steve@greenleaf-tdg.com unknown 4.70 33 82 305 53.80416985 -1.57530408 0.5300 2024-06-12T18:16:38.049Z 2024-06-12 18:16:38
816989 AgVPjwh4gNY8gjsSZSI8kPEzDsQ2 steve@greenleaf-tdg.com unknown 4.70 33 82 305 53.80404757 -1.57500590 5.4700 2024-06-12T18:16:29.000Z 2024-06-12 18:16:29
816988 AgVPjwh4gNY8gjsSZSI8kPEzDsQ2 steve@greenleaf-tdg.com unknown 4.70 32 81 307 53.80217731 -1.57093263 13.5600 2024-06-12T18:14:01.000Z 2024-06-12 18:14:01
816987 AgVPjwh4gNY8gjsSZSI8kPEzDsQ2 steve@greenleaf-tdg.com unknown 4.80 32 80 297 53.79901686 -1.56334196 12.1000 2024-06-12T18:13:15.000Z 2024-06-12 18:13:15
816986 AgVPjwh4gNY8gjsSZSI8kPEzDsQ2 steve@greenleaf-tdg.com unknown 4.90 34 83 282 53.79674876 -1.55573601 9.6500 2024-06-12T18:11:37.049Z 2024-06-12 18:11:37
816985 AgVPjwh4gNY8gjsSZSI8kPEzDsQ2 steve@greenleaf-tdg.com unknown 4.80 33 82 280 53.79665850 -1.55506960 6.3400 2024-06-12T18:11:32.000Z 2024-06-12 18:11:32
816984 AgVPjwh4gNY8gjsSZSI8kPEzDsQ2 steve@greenleaf-tdg.com unknown 6.30 38 86 284 53.79778162 -1.55278771 8.1300 2024-06-12T18:09:20.000Z 2024-06-12 18:09:20
816983 AgVPjwh4gNY8gjsSZSI8kPEzDsQ2 steve@greenleaf-tdg.com unknown 6.30 38 87 213 53.79751951 -1.55106031 0.1400 2024-06-12T18:08:17.000Z 2024-06-12 18:08:17
816982 AgVPjwh4gNY8gjsSZSI8kPEzDsQ2 steve@greenleaf-tdg.com unknown 4.80 38 87 303 53.79665851 -1.54902778 0.7300 2024-06-12T18:05:01.000Z 2024-06-12 18:05:01
816981 AgVPjwh4gNY8gjsSZSI8kPEzDsQ2 steve@greenleaf-tdg.com unknown 4.80 37 86 282 53.79632845 -1.54813252 0.5100 2024-06-12T18:04:18.044Z 2024-06-12 18:04:18
816980 AgVPjwh4gNY8gjsSZSI8kPEzDsQ2 steve@greenleaf-tdg.com unknown 4.90 36 85 275 53.79602241 -1.54618295 1.2400 2024-06-12T18:02:43.000Z 2024-06-12 18:02:43
816979 AgVPjwh4gNY8gjsSZSI8kPEzDsQ2 steve@greenleaf-tdg.com unknown 35.00 38 86 -1 53.79604264 -1.54314611 -1.0000 2024-06-12T18:00:32.113Z 2024-06-12 18:00:32
816978 AgVPjwh4gNY8gjsSZSI8kPEzDsQ2 steve@greenleaf-tdg.com unknown 35.00 44 93 -1 53.79905440 -1.54081035 -1.0000 2024-06-12T17:20:58.905Z 2024-06-12 17:21:01
816977 AgVPjwh4gNY8gjsSZSI8kPEzDsQ2 steve@greenleaf-tdg.com unknown 35.00 44 93 -1 53.79899151 -1.54081863 -1.0000 2024-06-12T17:15:27.916Z 2024-06-12 17:15:28
816976 AgVPjwh4gNY8gjsSZSI8kPEzDsQ2 steve@greenleaf-tdg.com unknown 35.00 44 93 -1 53.79899151 -1.54081863 -1.0000 2024-06-12T17:15:24.332Z 2024-06-12 17:15:28
816975 AgVPjwh4gNY8gjsSZSI8kPEzDsQ2 steve@greenleaf-tdg.com unknown 18.60 43 92 31 53.79922349 -1.54066664 1.1900 2024-06-12T17:13:26.000Z 2024-06-12 17:13:27
816974 AgVPjwh4gNY8gjsSZSI8kPEzDsQ2 steve@greenleaf-tdg.com unknown 21.70 47 96 322 53.79875936 -1.54101499 0.0000 2024-06-12T17:12:20.000Z 2024-06-12 17:12:21
816973 AgVPjwh4gNY8gjsSZSI8kPEzDsQ2 steve@greenleaf-tdg.com unknown 35.00 44 93 -1 53.79897157 -1.54083083 -1.0000 2024-06-12T17:09:35.917Z 2024-06-12 17:09:36
816972 AgVPjwh4gNY8gjsSZSI8kPEzDsQ2 steve@greenleaf-tdg.com unknown 35.00 44 93 -1 53.79897157 -1.54083083 -1.0000 2024-06-12T17:09:32.444Z 2024-06-12 17:09:36
816971 AgVPjwh4gNY8gjsSZSI8kPEzDsQ2 steve@greenleaf-tdg.com unknown 5.00 49 98 155 53.79936046 -1.54252936 1.4200 2024-06-12T17:05:26.038Z 2024-06-12 17:05:26
816970 AgVPjwh4gNY8gjsSZSI8kPEzDsQ2 steve@greenleaf-tdg.com unknown 40.00 50 99 -1 53.79905639 -1.54311721 -1.0000 2024-06-12T17:04:50.854Z 2024-06-12 17:04:51
816969 AgVPjwh4gNY8gjsSZSI8kPEzDsQ2 steve@greenleaf-tdg.com unknown 40.00 50 99 -1 53.79905639 -1.54311721 -1.0000 2024-06-12T17:04:49.217Z 2024-06-12 17:04:51
816968 AgVPjwh4gNY8gjsSZSI8kPEzDsQ2 steve@greenleaf-tdg.com unknown 35.00 43 92 -1 53.79816894 -1.54783261 -1.0000 2024-06-12T16:37:48.203Z 2024-06-12 16:37:52
816967 AgVPjwh4gNY8gjsSZSI8kPEzDsQ2 steve@greenleaf-tdg.com unknown 5.00 46 95 87 53.79830513 -1.54771458 0.3400 2024-06-12T16:30:03.000Z 2024-06-12 16:30:03
816966 AgVPjwh4gNY8gjsSZSI8kPEzDsQ2 steve@greenleaf-tdg.com unknown 4.90 40 89 46 53.79765776 -1.54961190 1.0400 2024-06-12T16:27:51.041Z 2024-06-12 16:27:51
816965 AgVPjwh4gNY8gjsSZSI8kPEzDsQ2 steve@greenleaf-tdg.com unknown 5.10 39 88 96 53.79743158 -1.55038825 1.0000 2024-06-12T16:27:12.000Z 2024-06-12 16:27:12
816964 AgVPjwh4gNY8gjsSZSI8kPEzDsQ2 steve@greenleaf-tdg.com unknown 5.40 39 88 284 53.79746156 -1.55083418 5.9900 2024-06-12T16:23:43.000Z 2024-06-12 16:23:43
816963 AgVPjwh4gNY8gjsSZSI8kPEzDsQ2 steve@greenleaf-tdg.com unknown 4.90 33 81 99 53.79660229 -1.55355595 7.2300 2024-06-12T16:21:33.000Z 2024-06-12 16:21:33
816962 AgVPjwh4gNY8gjsSZSI8kPEzDsQ2 steve@greenleaf-tdg.com unknown 4.90 31 80 98 53.79704723 -1.55713788 6.1400 2024-06-12T16:20:57.034Z 2024-06-12 16:20:57
816961 AgVPjwh4gNY8gjsSZSI8kPEzDsQ2 steve@greenleaf-tdg.com unknown 5.20 31 80 150 53.79748609 -1.55949595 8.5700 2024-06-12T16:20:03.000Z 2024-06-12 16:20:03
816960 AgVPjwh4gNY8gjsSZSI8kPEzDsQ2 steve@greenleaf-tdg.com unknown 5.00 32 81 114 53.79888679 -1.56247226 0.1300 2024-06-12T16:17:01.000Z 2024-06-12 16:17:01
816959 AgVPjwh4gNY8gjsSZSI8kPEzDsQ2 steve@greenleaf-tdg.com unknown 4.80 33 82 130 53.80379228 -1.57407084 13.3000 2024-06-12T16:10:10.000Z 2024-06-12 16:10:10
816958 AgVPjwh4gNY8gjsSZSI8kPEzDsQ2 steve@greenleaf-tdg.com unknown 4.70 33 82 111 53.80485717 -1.57678173 12.2500 2024-06-12T16:09:53.032Z 2024-06-12 16:09:53
816957 AgVPjwh4gNY8gjsSZSI8kPEzDsQ2 steve@greenleaf-tdg.com unknown 5.10 35 83 116 53.80630105 -1.58226497 6.6400 2024-06-12T16:09:16.000Z 2024-06-12 16:09:16
816956 AgVPjwh4gNY8gjsSZSI8kPEzDsQ2 steve@greenleaf-tdg.com unknown 4.70 37 86 60 53.80701100 -1.58409923 1.4100 2024-06-12T16:06:01.050Z 2024-06-12 16:06:01
816955 AgVPjwh4gNY8gjsSZSI8kPEzDsQ2 steve@greenleaf-tdg.com unknown 29.80 34 83 129 53.80674004 -1.58387729 0.2500 2024-06-12T16:03:24.036Z 2024-06-12 16:03:24
816954 AgVPjwh4gNY8gjsSZSI8kPEzDsQ2 steve@greenleaf-tdg.com unknown 5.10 35 84 118 53.80688439 -1.58417751 3.8100 2024-06-12T16:01:34.000Z 2024-06-12 16:01:34
816953 AgVPjwh4gNY8gjsSZSI8kPEzDsQ2 steve@greenleaf-tdg.com unknown 4.90 39 88 121 53.80979895 -1.59245068 12.4600 2024-06-12T15:59:48.000Z 2024-06-12 15:59:48
816952 AgVPjwh4gNY8gjsSZSI8kPEzDsQ2 steve@greenleaf-tdg.com unknown 5.40 46 96 152 53.81332053 -1.59944692 12.4300 2024-06-12T15:58:57.000Z 2024-06-12 15:58:57
816951 AgVPjwh4gNY8gjsSZSI8kPEzDsQ2 steve@greenleaf-tdg.com unknown 5.00 37 87 88 53.81515737 -1.60305353 11.6600 2024-06-12T15:58:23.042Z 2024-06-12 15:58:23
816950 AgVPjwh4gNY8gjsSZSI8kPEzDsQ2 steve@greenleaf-tdg.com unknown 4.80 41 91 116 53.81580077 -1.60769604 6.9300 2024-06-12T15:57:10.000Z 2024-06-12 15:57:10
816949 AgVPjwh4gNY8gjsSZSI8kPEzDsQ2 steve@greenleaf-tdg.com unknown 6.30 51 100 128 53.81670405 -1.61076790 6.3300 2024-06-12T15:53:24.000Z 2024-06-12 15:53:24
816948 AgVPjwh4gNY8gjsSZSI8kPEzDsQ2 steve@greenleaf-tdg.com unknown 6.50 51 101 128 53.81673375 -1.61084356 8.5600 2024-06-12T15:53:23.040Z 2024-06-12 15:53:23
816947 AgVPjwh4gNY8gjsSZSI8kPEzDsQ2 steve@greenleaf-tdg.com unknown 5.00 70 120 115 53.82014904 -1.62018375 15.9700 2024-06-12T15:52:37.000Z 2024-06-12 15:52:37
816946 AgVPjwh4gNY8gjsSZSI8kPEzDsQ2 steve@greenleaf-tdg.com unknown 5.20 104 154 83 53.81987343 -1.63246877 15.6200 2024-06-12T15:51:47.000Z 2024-06-12 15:51:47
816945 AgVPjwh4gNY8gjsSZSI8kPEzDsQ2 steve@greenleaf-tdg.com unknown 4.90 106 155 43 53.81558746 -1.64224125 15.7300 2024-06-12T15:50:45.000Z 2024-06-12 15:50:45
816944 AgVPjwh4gNY8gjsSZSI8kPEzDsQ2 steve@greenleaf-tdg.com unknown 4.80 109 159 105 53.81457650 -1.64404197 2.4200 2024-06-12T15:48:23.030Z 2024-06-12 15:48:23
816943 AgVPjwh4gNY8gjsSZSI8kPEzDsQ2 steve@greenleaf-tdg.com unknown 4.80 112 162 44 53.81425405 -1.64442711 12.0700 2024-06-12T15:47:43.000Z 2024-06-12 15:47:43
816942 AgVPjwh4gNY8gjsSZSI8kPEzDsQ2 steve@greenleaf-tdg.com unknown 4.90 106 155 280 53.80707288 -1.64327202 16.8900 2024-06-12T15:45:38.000Z 2024-06-12 15:45:38
816941 AgVPjwh4gNY8gjsSZSI8kPEzDsQ2 steve@greenleaf-tdg.com unknown 4.90 82 131 298 53.80095458 -1.63193182 18.3500 2024-06-12T15:43:36.000Z 2024-06-12 15:43:36
816940 AgVPjwh4gNY8gjsSZSI8kPEzDsQ2 steve@greenleaf-tdg.com unknown 4.90 64 114 312 53.79970156 -1.62948785 16.1900 2024-06-12T15:43:23.029Z 2024-06-12 15:43:23
816939 AgVPjwh4gNY8gjsSZSI8kPEzDsQ2 steve@greenleaf-tdg.com unknown 4.80 61 111 316 53.79557131 -1.62380420 15.8200 2024-06-12T15:42:30.000Z 2024-06-12 15:42:30
816938 AgVPjwh4gNY8gjsSZSI8kPEzDsQ2 steve@greenleaf-tdg.com unknown 5.10 77 127 5 53.79115163 -1.62222510 9.5900 2024-06-12T15:39:26.000Z 2024-06-12 15:39:26
816937 AgVPjwh4gNY8gjsSZSI8kPEzDsQ2 steve@greenleaf-tdg.com unknown 5.50 114 163 343 53.78652981 -1.62131528 8.2000 2024-06-12T15:38:22.037Z 2024-06-12 15:38:22
816936 AgVPjwh4gNY8gjsSZSI8kPEzDsQ2 steve@greenleaf-tdg.com unknown 4.90 116 165 37 53.78570442 -1.62191062 6.8100 2024-06-12T15:38:06.001Z 2024-06-12 15:38:22
816935 AgVPjwh4gNY8gjsSZSI8kPEzDsQ2 steve@greenleaf-tdg.com unknown 35.00 120 170 -1 53.78354780 -1.62353286 -1.0000 2024-06-12T08:39:24.194Z 2024-06-12 08:39:24
816934 AgVPjwh4gNY8gjsSZSI8kPEzDsQ2 steve@greenleaf-tdg.com unknown 35.00 120 170 -1 53.78354580 -1.62353793 -1.0000 2024-06-12T08:33:51.164Z 2024-06-12 08:33:51
816933 AgVPjwh4gNY8gjsSZSI8kPEzDsQ2 steve@greenleaf-tdg.com unknown 4.80 119 168 352 53.78220136 -1.62367770 11.2700 2024-06-12T08:28:04.032Z 2024-06-12 08:28:04
816932 AgVPjwh4gNY8gjsSZSI8kPEzDsQ2 steve@greenleaf-tdg.com unknown 4.80 118 168 352 53.78191790 -1.62361000 9.8200 2024-06-12T08:28:01.000Z 2024-06-12 08:28:01
816931 AgVPjwh4gNY8gjsSZSI8kPEzDsQ2 steve@greenleaf-tdg.com unknown 4.90 93 142 239 53.77784395 -1.61350973 15.1500 2024-06-12T08:26:08.000Z 2024-06-12 08:26:08
816930 AgVPjwh4gNY8gjsSZSI8kPEzDsQ2 steve@greenleaf-tdg.com unknown 4.80 56 106 248 53.78089366 -1.60227524 14.2000 2024-06-12T08:25:05.000Z 2024-06-12 08:25:05
816929 AgVPjwh4gNY8gjsSZSI8kPEzDsQ2 steve@greenleaf-tdg.com unknown 4.80 50 98 263 53.78187890 -1.59020323 15.4300 2024-06-12T08:23:45.000Z 2024-06-12 08:23:45
816928 AgVPjwh4gNY8gjsSZSI8kPEzDsQ2 steve@greenleaf-tdg.com unknown 4.80 52 101 280 53.78329247 -1.58265318 9.8400 2024-06-12T08:23:04.031Z 2024-06-12 08:23:04
816927 AgVPjwh4gNY8gjsSZSI8kPEzDsQ2 steve@greenleaf-tdg.com unknown 4.80 53 102 231 53.78365964 -1.58151906 16.0300 2024-06-12T08:22:57.000Z 2024-06-12 08:22:57
816926 AgVPjwh4gNY8gjsSZSI8kPEzDsQ2 steve@greenleaf-tdg.com unknown 4.90 43 92 239 53.78822582 -1.57214210 12.7200 2024-06-12T08:22:05.000Z 2024-06-12 08:22:05
816925 AgVPjwh4gNY8gjsSZSI8kPEzDsQ2 steve@greenleaf-tdg.com unknown 4.90 37 86 215 53.79243825 -1.56641204 12.0100 2024-06-12T08:20:04.000Z 2024-06-12 08:20:04
816924 AgVPjwh4gNY8gjsSZSI8kPEzDsQ2 steve@greenleaf-tdg.com unknown 4.80 34 83 237 53.79678003 -1.56089838 11.7200 2024-06-12T08:18:58.000Z 2024-06-12 08:18:58
816923 AgVPjwh4gNY8gjsSZSI8kPEzDsQ2 steve@greenleaf-tdg.com unknown 4.80 31 80 279 53.79707038 -1.55929273 0.5400 2024-06-12T08:18:04.029Z 2024-06-12 08:18:04
816922 AgVPjwh4gNY8gjsSZSI8kPEzDsQ2 steve@greenleaf-tdg.com unknown 4.80 31 80 279 53.79695608 -1.55779278 10.2000 2024-06-12T08:17:48.000Z 2024-06-12 08:17:48
816921 AgVPjwh4gNY8gjsSZSI8kPEzDsQ2 steve@greenleaf-tdg.com unknown 4.90 31 80 196 53.79685823 -1.55462291 0.9700 2024-06-12T08:16:27.000Z 2024-06-12 08:16:27
816920 AgVPjwh4gNY8gjsSZSI8kPEzDsQ2 steve@greenleaf-tdg.com unknown 4.80 38 87 297 53.79788982 -1.55411784 0.2000 2024-06-12T08:14:48.000Z 2024-06-12 08:14:48
816919 AgVPjwh4gNY8gjsSZSI8kPEzDsQ2 steve@greenleaf-tdg.com unknown 35.00 46 95 -1 53.79715253 -1.55013693 -1.0000 2024-06-12T07:10:31.189Z 2024-06-12 07:10:31
816918 AgVPjwh4gNY8gjsSZSI8kPEzDsQ2 steve@greenleaf-tdg.com unknown 35.00 45 94 -1 53.79711801 -1.55003890 -1.0000 2024-06-12T07:04:15.804Z 2024-06-12 07:04:16
816917 AgVPjwh4gNY8gjsSZSI8kPEzDsQ2 steve@greenleaf-tdg.com unknown 4.80 39 88 154 53.79726050 -1.55015836 0.3000 2024-06-12T07:03:09.174Z 2024-06-12 07:03:09
816916 AgVPjwh4gNY8gjsSZSI8kPEzDsQ2 steve@greenleaf-tdg.com unknown 4.80 36 85 14 53.79661173 -1.55065321 6.7100 2024-06-12T06:59:51.000Z 2024-06-12 06:59:51
816915 AgVPjwh4gNY8gjsSZSI8kPEzDsQ2 steve@greenleaf-tdg.com unknown 4.80 36 85 97 53.79639976 -1.55178572 0.0000 2024-06-12T06:59:24.000Z 2024-06-12 06:59:24
816914 AgVPjwh4gNY8gjsSZSI8kPEzDsQ2 steve@greenleaf-tdg.com unknown 4.80 36 85 97 53.79639976 -1.55178572 0.0000 2024-06-12T06:59:23.093Z 2024-06-12 06:59:23
816913 AgVPjwh4gNY8gjsSZSI8kPEzDsQ2 steve@greenleaf-tdg.com unknown 4.70 32 81 98 53.79710783 -1.55848067 11.8200 2024-06-12T06:57:58.000Z 2024-06-12 06:57:58
816912 AgVPjwh4gNY8gjsSZSI8kPEzDsQ2 steve@greenleaf-tdg.com unknown 4.70 32 81 125 53.80124489 -1.56859352 16.1200 2024-06-12T06:56:43.000Z 2024-06-12 06:56:43
816911 AgVPjwh4gNY8gjsSZSI8kPEzDsQ2 steve@greenleaf-tdg.com unknown 4.80 33 82 119 53.80457529 -1.57584143 11.3600 2024-06-12T06:56:03.000Z 2024-06-12 06:56:04
816910 AgVPjwh4gNY8gjsSZSI8kPEzDsQ2 steve@greenleaf-tdg.com unknown 4.70 36 85 119 53.80686868 -1.58408480 11.8200 2024-06-12T06:54:43.000Z 2024-06-12 06:54:44
816909 AgVPjwh4gNY8gjsSZSI8kPEzDsQ2 steve@greenleaf-tdg.com unknown 4.70 36 84 121 53.80797528 -1.58732693 11.1000 2024-06-12T06:54:22.087Z 2024-06-12 06:54:23
816908 AgVPjwh4gNY8gjsSZSI8kPEzDsQ2 steve@greenleaf-tdg.com unknown 4.70 39 88 121 53.80966158 -1.59201499 5.5500 2024-06-12T06:53:15.000Z 2024-06-12 06:53:16
816907 AgVPjwh4gNY8gjsSZSI8kPEzDsQ2 steve@greenleaf-tdg.com unknown 4.70 44 93 127 53.81154586 -1.59726016 2.8000 2024-06-12T06:50:45.000Z 2024-06-12 06:50:46
816906 AgVPjwh4gNY8gjsSZSI8kPEzDsQ2 steve@greenleaf-tdg.com unknown 4.70 45 95 154 53.81296646 -1.59914080 2.2200 2024-06-12T06:49:23.000Z 2024-06-12 06:49:25
816905 AgVPjwh4gNY8gjsSZSI8kPEzDsQ2 steve@greenleaf-tdg.com unknown 4.70 45 95 154 53.81298379 -1.59915620 2.4100 2024-06-12T06:49:22.035Z 2024-06-12 06:49:24
816904 AgVPjwh4gNY8gjsSZSI8kPEzDsQ2 steve@greenleaf-tdg.com unknown 4.80 41 90 143 53.81534605 -1.60170026 8.3000 2024-06-12T06:48:29.000Z 2024-06-12 06:48:30
816903 AgVPjwh4gNY8gjsSZSI8kPEzDsQ2 steve@greenleaf-tdg.com unknown 4.70 41 91 118 53.81584397 -1.60782395 6.5900 2024-06-12T06:46:50.000Z 2024-06-12 06:46:51
816902 AgVPjwh4gNY8gjsSZSI8kPEzDsQ2 steve@greenleaf-tdg.com unknown 5.00 53 103 128 53.81670973 -1.61078064 3.8700 2024-06-12T06:45:24.000Z 2024-06-12 06:45:24
816901 AgVPjwh4gNY8gjsSZSI8kPEzDsQ2 steve@greenleaf-tdg.com unknown 4.80 56 106 130 53.81771815 -1.61290737 2.4700 2024-06-12T06:44:22.034Z 2024-06-12 06:44:22
816900 AgVPjwh4gNY8gjsSZSI8kPEzDsQ2 steve@greenleaf-tdg.com unknown 4.80 57 106 131 53.81785771 -1.61318294 2.5800 2024-06-12T06:44:11.000Z 2024-06-12 06:44:11
816899 AgVPjwh4gNY8gjsSZSI8kPEzDsQ2 steve@greenleaf-tdg.com unknown 4.80 63 113 117 53.81891164 -1.61566157 1.9400 2024-06-12T06:42:40.000Z 2024-06-12 06:42:40
816898 AgVPjwh4gNY8gjsSZSI8kPEzDsQ2 steve@greenleaf-tdg.com unknown 5.00 94 144 82 53.82028330 -1.62759128 17.1300 2024-06-12T06:40:23.000Z 2024-06-12 06:40:23
816897 AgVPjwh4gNY8gjsSZSI8kPEzDsQ2 steve@greenleaf-tdg.com unknown 4.80 106 155 66 53.81969721 -1.63378604 7.1600 2024-06-12T06:39:55.000Z 2024-06-12 06:39:55
816896 AgVPjwh4gNY8gjsSZSI8kPEzDsQ2 steve@greenleaf-tdg.com unknown 4.80 104 154 53 53.81789189 -1.63800420 11.3300 2024-06-12T06:39:22.034Z 2024-06-12 06:39:22
816895 AgVPjwh4gNY8gjsSZSI8kPEzDsQ2 steve@greenleaf-tdg.com unknown 4.80 101 151 43 53.81636511 -1.64106041 4.8300 2024-06-12T06:38:57.000Z 2024-06-12 06:38:57
816894 AgVPjwh4gNY8gjsSZSI8kPEzDsQ2 steve@greenleaf-tdg.com still 11.10 107 156 -1 53.81491647 -1.64390038 -1.0000 2024-06-11T20:20:42.655Z 2024-06-11 20:20:42
816893 AgVPjwh4gNY8gjsSZSI8kPEzDsQ2 steve@greenleaf-tdg.com on_foot 4.70 103 153 231 53.81541873 -1.64307260 1.1200 2024-06-11T20:13:22.000Z 2024-06-11 20:13:23
816892 AgVPjwh4gNY8gjsSZSI8kPEzDsQ2 steve@greenleaf-tdg.com in_vehicle 5.90 92 141 89 53.81617217 -1.64808519 6.6300 2024-06-11T20:10:25.000Z 2024-06-11 20:10:25
816891 AgVPjwh4gNY8gjsSZSI8kPEzDsQ2 steve@greenleaf-tdg.com in_vehicle 6.10 92 141 89 53.81617044 -1.64820437 5.7300 2024-06-11T20:10:24.023Z 2024-06-11 20:10:24
816890 AgVPjwh4gNY8gjsSZSI8kPEzDsQ2 steve@greenleaf-tdg.com in_vehicle 5.80 59 108 133 53.82029542 -1.65426654 13.1000 2024-06-11T20:09:14.000Z 2024-06-11 20:09:14
816889 AgVPjwh4gNY8gjsSZSI8kPEzDsQ2 steve@greenleaf-tdg.com in_vehicle 10.40 57 107 87 53.82307302 -1.66222662 11.3900 2024-06-11T20:08:21.000Z 2024-06-11 20:08:26
816888 AgVPjwh4gNY8gjsSZSI8kPEzDsQ2 steve@greenleaf-tdg.com in_vehicle 4.80 73 123 94 53.82488550 -1.66756093 6.3200 2024-06-11T20:07:43.000Z 2024-06-11 20:07:43
816887 AgVPjwh4gNY8gjsSZSI8kPEzDsQ2 steve@greenleaf-tdg.com in_vehicle 4.80 119 169 106 53.82645884 -1.67948403 13.5500 2024-06-11T20:06:20.000Z 2024-06-11 20:06:20
816886 AgVPjwh4gNY8gjsSZSI8kPEzDsQ2 steve@greenleaf-tdg.com in_vehicle 4.80 115 165 119 53.83028437 -1.68595414 10.8200 2024-06-11T20:05:24.000Z 2024-06-11 20:05:24
816885 AgVPjwh4gNY8gjsSZSI8kPEzDsQ2 steve@greenleaf-tdg.com in_vehicle 4.80 116 165 108 53.83033070 -1.68610290 10.8100 2024-06-11T20:05:23.029Z 2024-06-11 20:05:23
816884 AgVPjwh4gNY8gjsSZSI8kPEzDsQ2 steve@greenleaf-tdg.com in_vehicle 10.80 127 177 80 53.82984194 -1.69558653 15.3600 2024-06-11T20:04:33.000Z 2024-06-11 20:04:33
816883 AgVPjwh4gNY8gjsSZSI8kPEzDsQ2 steve@greenleaf-tdg.com in_vehicle 8.90 97 147 124 53.82978748 -1.70783576 13.5900 2024-06-11T20:03:35.000Z 2024-06-11 20:03:35
816882 AgVPjwh4gNY8gjsSZSI8kPEzDsQ2 steve@greenleaf-tdg.com in_vehicle 7.10 85 134 121 53.83260846 -1.71579665 12.3600 2024-06-11T20:02:48.000Z 2024-06-11 20:02:48
816881 AgVPjwh4gNY8gjsSZSI8kPEzDsQ2 steve@greenleaf-tdg.com in_vehicle 10.40 94 144 142 53.83662803 -1.72200750 11.0300 2024-06-11T20:01:51.000Z 2024-06-11 20:01:51
816880 AgVPjwh4gNY8gjsSZSI8kPEzDsQ2 steve@greenleaf-tdg.com in_vehicle 13.00 121 170 149 53.84103890 -1.72744230 11.0100 2024-06-11T20:00:59.000Z 2024-06-11 20:00:59
816879 AgVPjwh4gNY8gjsSZSI8kPEzDsQ2 steve@greenleaf-tdg.com in_vehicle 14.90 133 183 113 53.84274008 -1.73209624 9.5500 2024-06-11T20:00:23.024Z 2024-06-11 20:00:23
816878 AgVPjwh4gNY8gjsSZSI8kPEzDsQ2 steve@greenleaf-tdg.com in_vehicle 10.10 126 176 69 53.84257342 -1.73620481 11.8000 2024-06-11T19:59:57.000Z 2024-06-11 19:59:57
816877 AgVPjwh4gNY8gjsSZSI8kPEzDsQ2 steve@greenleaf-tdg.com in_vehicle 8.60 117 167 68 53.84057465 -1.74477728 11.4100 2024-06-11T19:59:05.000Z 2024-06-11 19:59:05
816876 AgVPjwh4gNY8gjsSZSI8kPEzDsQ2 steve@greenleaf-tdg.com in_vehicle 4.80 120 170 65 53.83828586 -1.75304004 11.5800 2024-06-11T19:58:15.000Z 2024-06-11 19:58:15
816875 AgVPjwh4gNY8gjsSZSI8kPEzDsQ2 steve@greenleaf-tdg.com in_vehicle 4.80 95 145 64 53.83599130 -1.76131676 11.8900 2024-06-11T19:57:22.000Z 2024-06-11 19:57:22
816874 AgVPjwh4gNY8gjsSZSI8kPEzDsQ2 steve@greenleaf-tdg.com in_vehicle 4.70 77 126 113 53.83421277 -1.77002975 12.2300 2024-06-11T19:56:00.000Z 2024-06-11 19:56:00
816873 AgVPjwh4gNY8gjsSZSI8kPEzDsQ2 steve@greenleaf-tdg.com in_vehicle 4.80 78 128 96 53.83492616 -1.77605495 6.7800 2024-06-11T19:55:23.000Z 2024-06-11 19:55:23
816872 AgVPjwh4gNY8gjsSZSI8kPEzDsQ2 steve@greenleaf-tdg.com in_vehicle 4.80 78 128 97 53.83493411 -1.77616260 5.9600 2024-06-11T19:55:22.030Z 2024-06-11 19:55:22
816871 AgVPjwh4gNY8gjsSZSI8kPEzDsQ2 steve@greenleaf-tdg.com in_vehicle 4.80 82 132 105 53.83561905 -1.78277499 10.7300 2024-06-11T19:53:23.000Z 2024-06-11 19:53:23
816870 AgVPjwh4gNY8gjsSZSI8kPEzDsQ2 steve@greenleaf-tdg.com in_vehicle 4.80 98 147 79 53.83600269 -1.79195198 8.7100 2024-06-11T19:52:12.000Z 2024-06-11 19:52:12
816869 AgVPjwh4gNY8gjsSZSI8kPEzDsQ2 steve@greenleaf-tdg.com in_vehicle 4.80 103 152 102 53.83550902 -1.79489835 0.0000 2024-06-11T19:51:45.000Z 2024-06-11 19:51:45
816868 AgVPjwh4gNY8gjsSZSI8kPEzDsQ2 steve@greenleaf-tdg.com in_vehicle 5.00 109 159 87 53.83559951 -1.80107722 15.1200 2024-06-11T19:50:22.026Z 2024-06-11 19:50:22
816867 AgVPjwh4gNY8gjsSZSI8kPEzDsQ2 steve@greenleaf-tdg.com in_vehicle 5.20 108 158 80 53.83519848 -1.80422735 15.9500 2024-06-11T19:50:09.000Z 2024-06-11 19:50:09
816866 AgVPjwh4gNY8gjsSZSI8kPEzDsQ2 steve@greenleaf-tdg.com in_vehicle 4.80 96 146 117 53.83370686 -1.81624885 14.4900 2024-06-11T19:49:14.000Z 2024-06-11 19:49:14
816865 AgVPjwh4gNY8gjsSZSI8kPEzDsQ2 steve@greenleaf-tdg.com in_vehicle 4.80 73 123 147 53.84091434 -1.82534707 18.3500 2024-06-11T19:48:08.000Z 2024-06-11 19:48:08
816864 AgVPjwh4gNY8gjsSZSI8kPEzDsQ2 steve@greenleaf-tdg.com in_vehicle 4.80 84 134 134 53.84739968 -1.83089277 16.2800 2024-06-11T19:47:18.000Z 2024-06-11 19:47:18
816863 AgVPjwh4gNY8gjsSZSI8kPEzDsQ2 steve@greenleaf-tdg.com in_vehicle 4.80 80 130 169 53.85258983 -1.83964477 14.8200 2024-06-11T19:46:17.000Z 2024-06-11 19:46:17
816862 AgVPjwh4gNY8gjsSZSI8kPEzDsQ2 steve@greenleaf-tdg.com in_vehicle 4.80 86 136 133 53.85959824 -1.84598569 19.1100 2024-06-11T19:45:22.025Z 2024-06-11 19:45:22
816861 AgVPjwh4gNY8gjsSZSI8kPEzDsQ2 steve@greenleaf-tdg.com in_vehicle 4.80 85 134 128 53.86035605 -1.84748545 17.3900 2024-06-11T19:45:15.000Z 2024-06-11 19:45:15
816860 AgVPjwh4gNY8gjsSZSI8kPEzDsQ2 steve@greenleaf-tdg.com in_vehicle 4.80 89 139 300 53.86481998 -1.85279554 9.8300 2024-06-11T19:44:12.000Z 2024-06-11 19:44:13
816859 AgVPjwh4gNY8gjsSZSI8kPEzDsQ2 steve@greenleaf-tdg.com still 35.00 93 143 -1 53.86323952 -1.84997820 -1.0000 2024-06-11T16:26:56.500Z 2024-06-11 16:26:56
816858 AgVPjwh4gNY8gjsSZSI8kPEzDsQ2 steve@greenleaf-tdg.com on_bicycle 35.00 90 140 -1 53.86316305 -1.85008275 -1.0000 2024-06-11T16:21:01.126Z 2024-06-11 16:21:01
816857 AgVPjwh4gNY8gjsSZSI8kPEzDsQ2 steve@greenleaf-tdg.com on_bicycle 6.20 90 140 -1 53.86336473 -1.85027165 0.1600 2024-06-11T16:20:55.000Z 2024-06-11 16:21:01
816856 AgVPjwh4gNY8gjsSZSI8kPEzDsQ2 steve@greenleaf-tdg.com on_bicycle 6.20 90 140 -1 53.86336473 -1.85027165 0.1600 2024-06-11T16:20:45.261Z 2024-06-11 16:21:01
816855 AgVPjwh4gNY8gjsSZSI8kPEzDsQ2 steve@greenleaf-tdg.com on_bicycle 35.00 93 143 -1 53.86315792 -1.85007758 -1.0000 2024-06-11T16:19:59.829Z 2024-06-11 16:19:59
816854 AgVPjwh4gNY8gjsSZSI8kPEzDsQ2 steve@greenleaf-tdg.com on_bicycle 35.00 93 143 -1 53.86315838 -1.85007813 -1.0000 2024-06-11T16:19:21.161Z 2024-06-11 16:19:59
816853 AgVPjwh4gNY8gjsSZSI8kPEzDsQ2 steve@greenleaf-tdg.com on_bicycle 31.00 91 0 -1 53.86314608 -1.85006208 -1.0000 2024-06-11T16:19:35.677Z 2024-06-11 16:19:59
816852 AgVPjwh4gNY8gjsSZSI8kPEzDsQ2 steve@greenleaf-tdg.com on_bicycle 35.00 93 143 -1 53.86310409 -1.85002281 -1.0000 2024-06-11T16:16:05.857Z 2024-06-11 16:16:06
816851 AgVPjwh4gNY8gjsSZSI8kPEzDsQ2 steve@greenleaf-tdg.com on_foot 40.00 90 140 -1 53.86325806 -1.85016005 -1.0000 2024-06-11T16:11:14.290Z 2024-06-11 16:11:14
816850 AgVPjwh4gNY8gjsSZSI8kPEzDsQ2 steve@greenleaf-tdg.com in_vehicle 4.80 90 140 275 53.86339524 -1.85012129 0.0300 2024-06-11T16:09:57.000Z 2024-06-11 16:09:57
816849 AgVPjwh4gNY8gjsSZSI8kPEzDsQ2 steve@greenleaf-tdg.com in_vehicle 4.80 90 140 275 53.86339504 -1.85011723 0.0800 2024-06-11T16:09:56.029Z 2024-06-11 16:09:56
816848 AgVPjwh4gNY8gjsSZSI8kPEzDsQ2 steve@greenleaf-tdg.com in_vehicle 4.90 113 163 190 53.86345947 -1.84332004 10.3200 2024-06-11T16:07:41.000Z 2024-06-11 16:07:41
816847 AgVPjwh4gNY8gjsSZSI8kPEzDsQ2 steve@greenleaf-tdg.com in_vehicle 4.90 136 186 177 53.86710321 -1.84327482 7.3600 2024-06-11T16:07:02.000Z 2024-06-11 16:07:02
816846 AgVPjwh4gNY8gjsSZSI8kPEzDsQ2 steve@greenleaf-tdg.com in_vehicle 4.90 186 236 212 53.87251866 -1.84223966 10.9800 2024-06-11T16:05:41.000Z 2024-06-11 16:05:41
816845 AgVPjwh4gNY8gjsSZSI8kPEzDsQ2 steve@greenleaf-tdg.com in_vehicle 4.80 216 266 275 53.87638188 -1.84073672 3.0600 2024-06-11T16:04:55.027Z 2024-06-11 16:04:55
816844 AgVPjwh4gNY8gjsSZSI8kPEzDsQ2 steve@greenleaf-tdg.com in_vehicle 4.80 227 277 309 53.87580822 -1.83966139 13.1300 2024-06-11T16:04:44.000Z 2024-06-11 16:04:44
816843 AgVPjwh4gNY8gjsSZSI8kPEzDsQ2 steve@greenleaf-tdg.com in_vehicle 4.80 259 309 275 53.87636640 -1.82438404 18.2200 2024-06-11T16:03:36.000Z 2024-06-11 16:03:39
816842 AgVPjwh4gNY8gjsSZSI8kPEzDsQ2 steve@greenleaf-tdg.com in_vehicle 4.80 267 317 297 53.87513060 -1.81236008 13.4800 2024-06-11T16:02:47.000Z 2024-06-11 16:02:47
816841 AgVPjwh4gNY8gjsSZSI8kPEzDsQ2 steve@greenleaf-tdg.com in_vehicle 4.80 257 306 231 53.87535444 -1.79705819 17.6700 2024-06-11T16:01:19.000Z 2024-06-11 16:01:19
816840 AgVPjwh4gNY8gjsSZSI8kPEzDsQ2 steve@greenleaf-tdg.com in_vehicle 4.80 260 309 223 53.88001961 -1.78751675 16.2600 2024-06-11T16:00:31.000Z 2024-06-11 16:00:31
816839 AgVPjwh4gNY8gjsSZSI8kPEzDsQ2 steve@greenleaf-tdg.com in_vehicle 4.80 240 289 259 53.88123645 -1.77883197 16.5900 2024-06-11T15:59:55.022Z 2024-06-11 15:59:55
816838 AgVPjwh4gNY8gjsSZSI8kPEzDsQ2 steve@greenleaf-tdg.com in_vehicle 4.80 244 293 248 53.88163267 -1.77557930 16.6700 2024-06-11T15:59:42.000Z 2024-06-11 15:59:42
816837 AgVPjwh4gNY8gjsSZSI8kPEzDsQ2 steve@greenleaf-tdg.com in_vehicle 4.80 244 294 279 53.88324779 -1.76354486 16.7000 2024-06-11T15:58:47.000Z 2024-06-11 15:58:47
816836 AgVPjwh4gNY8gjsSZSI8kPEzDsQ2 steve@greenleaf-tdg.com in_vehicle 4.80 198 248 268 53.88545198 -1.75182355 15.2200 2024-06-11T15:57:28.000Z 2024-06-11 15:57:28
816835 AgVPjwh4gNY8gjsSZSI8kPEzDsQ2 steve@greenleaf-tdg.com in_vehicle 5.00 153 203 241 53.88610027 -1.73955368 13.8400 2024-06-11T15:56:24.000Z 2024-06-11 15:56:24
816834 AgVPjwh4gNY8gjsSZSI8kPEzDsQ2 steve@greenleaf-tdg.com in_vehicle 4.80 139 189 326 53.88608560 -1.73042443 9.6300 2024-06-11T15:55:30.000Z 2024-06-11 15:55:30
816833 AgVPjwh4gNY8gjsSZSI8kPEzDsQ2 steve@greenleaf-tdg.com in_vehicle 4.90 141 191 352 53.88413267 -1.72859975 5.5600 2024-06-11T15:54:54.032Z 2024-06-11 15:54:54
816832 AgVPjwh4gNY8gjsSZSI8kPEzDsQ2 steve@greenleaf-tdg.com in_vehicle 4.80 138 188 357 53.88267592 -1.72841043 11.2600 2024-06-11T15:54:26.000Z 2024-06-11 15:54:26
816831 AgVPjwh4gNY8gjsSZSI8kPEzDsQ2 steve@greenleaf-tdg.com in_vehicle 4.70 143 192 292 53.87783343 -1.72414539 7.9400 2024-06-11T15:53:01.000Z 2024-06-11 15:53:01
816830 AgVPjwh4gNY8gjsSZSI8kPEzDsQ2 steve@greenleaf-tdg.com in_vehicle 4.70 139 189 299 53.87500046 -1.71630564 10.9600 2024-06-11T15:52:03.000Z 2024-06-11 15:52:03
816829 AgVPjwh4gNY8gjsSZSI8kPEzDsQ2 steve@greenleaf-tdg.com in_vehicle 4.70 132 181 304 53.87316229 -1.71098340 4.5300 2024-06-11T15:51:05.000Z 2024-06-11 15:51:05
816828 AgVPjwh4gNY8gjsSZSI8kPEzDsQ2 steve@greenleaf-tdg.com in_vehicle 4.70 129 179 315 53.87181984 -1.70894703 0.0000 2024-06-11T15:50:30.000Z 2024-06-11 15:50:30
816827 AgVPjwh4gNY8gjsSZSI8kPEzDsQ2 steve@greenleaf-tdg.com in_vehicle 4.60 132 182 298 53.87147955 -1.70752414 3.7600 2024-06-11T15:49:53.090Z 2024-06-11 15:49:53
816826 AgVPjwh4gNY8gjsSZSI8kPEzDsQ2 steve@greenleaf-tdg.com in_vehicle 3.50 133 182 297 53.87143683 -1.70738462 0.0000 2024-06-11T15:49:48.617Z 2024-06-11 15:49:49
816825 AgVPjwh4gNY8gjsSZSI8kPEzDsQ2 steve@greenleaf-tdg.com in_vehicle 4.80 129 179 296 53.87142939 -1.70737746 0.0000 2024-06-11T15:49:38.284Z 2024-06-11 15:49:38
816824 AgVPjwh4gNY8gjsSZSI8kPEzDsQ2 steve@greenleaf-tdg.com in_vehicle 4.80 129 179 296 53.87142939 -1.70737746 0.0000 2024-06-11T15:49:36.000Z 2024-06-11 15:49:38
816823 AgVPjwh4gNY8gjsSZSI8kPEzDsQ2 steve@greenleaf-tdg.com in_vehicle 4.80 128 178 327 53.86938036 -1.70198367 10.8600 2024-06-11T15:47:57.000Z 2024-06-11 15:47:57
816822 AgVPjwh4gNY8gjsSZSI8kPEzDsQ2 steve@greenleaf-tdg.com in_vehicle 4.70 143 192 330 53.86448595 -1.69783282 8.8300 2024-06-11T15:46:55.000Z 2024-06-11 15:46:55
816821 AgVPjwh4gNY8gjsSZSI8kPEzDsQ2 steve@greenleaf-tdg.com in_vehicle 4.80 134 184 321 53.86011093 -1.69228249 12.1600 2024-06-11T15:45:09.000Z 2024-06-11 15:45:09
816820 AgVPjwh4gNY8gjsSZSI8kPEzDsQ2 steve@greenleaf-tdg.com in_vehicle 4.80 140 190 320 53.85888991 -1.69057208 10.3200 2024-06-11T15:44:53.025Z 2024-06-11 15:44:53
816819 AgVPjwh4gNY8gjsSZSI8kPEzDsQ2 steve@greenleaf-tdg.com in_vehicle 4.80 159 209 333 53.85563109 -1.68719586 13.5900 2024-06-11T15:43:19.000Z 2024-06-11 15:43:19
816818 AgVPjwh4gNY8gjsSZSI8kPEzDsQ2 steve@greenleaf-tdg.com in_vehicle 4.80 169 219 299 53.84978584 -1.67990015 15.2000 2024-06-11T15:42:18.000Z 2024-06-11 15:42:18
816817 AgVPjwh4gNY8gjsSZSI8kPEzDsQ2 steve@greenleaf-tdg.com in_vehicle 4.70 147 196 302 53.84670509 -1.66885818 12.5700 2024-06-11T15:41:16.000Z 2024-06-11 15:41:16
816816 AgVPjwh4gNY8gjsSZSI8kPEzDsQ2 steve@greenleaf-tdg.com in_vehicle 4.70 130 180 340 53.84365060 -1.66542925 6.8000 2024-06-11T15:40:38.000Z 2024-06-11 15:40:38
816815 AgVPjwh4gNY8gjsSZSI8kPEzDsQ2 steve@greenleaf-tdg.com in_vehicle 4.70 114 164 322 53.84011261 -1.66263755 11.6100 2024-06-11T15:39:52.088Z 2024-06-11 15:39:52
816814 AgVPjwh4gNY8gjsSZSI8kPEzDsQ2 steve@greenleaf-tdg.com in_vehicle 4.70 115 164 319 53.83889877 -1.66091713 11.5600 2024-06-11T15:39:37.000Z 2024-06-11 15:39:37
816813 AgVPjwh4gNY8gjsSZSI8kPEzDsQ2 steve@greenleaf-tdg.com in_vehicle 4.80 85 135 41 53.83253794 -1.65495368 14.0100 2024-06-11T15:36:57.000Z 2024-06-11 15:36:57
816812 AgVPjwh4gNY8gjsSZSI8kPEzDsQ2 steve@greenleaf-tdg.com in_vehicle 4.70 56 106 41 53.82844311 -1.66108064 9.6300 2024-06-11T15:36:04.000Z 2024-06-11 15:36:04
816811 AgVPjwh4gNY8gjsSZSI8kPEzDsQ2 steve@greenleaf-tdg.com in_vehicle 4.70 72 122 310 53.82449676 -1.66760429 9.9100 2024-06-11T15:34:52.034Z 2024-06-11 15:34:52
816810 AgVPjwh4gNY8gjsSZSI8kPEzDsQ2 steve@greenleaf-tdg.com in_vehicle 4.70 64 113 300 53.82378346 -1.66570666 4.3100 2024-06-11T15:33:58.000Z 2024-06-11 15:33:58
816809 AgVPjwh4gNY8gjsSZSI8kPEzDsQ2 steve@greenleaf-tdg.com in_vehicle 4.70 57 107 272 53.82300102 -1.66289966 1.3400 2024-06-11T15:32:18.000Z 2024-06-11 15:32:18
816808 AgVPjwh4gNY8gjsSZSI8kPEzDsQ2 steve@greenleaf-tdg.com in_vehicle 4.70 61 111 276 53.82311484 -1.65985149 1.0900 2024-06-11T15:29:52.000Z 2024-06-11 15:29:52
816807 AgVPjwh4gNY8gjsSZSI8kPEzDsQ2 steve@greenleaf-tdg.com in_vehicle 4.70 61 111 276 53.82311373 -1.65983700 1.6300 2024-06-11T15:29:51.036Z 2024-06-11 15:29:51
816806 AgVPjwh4gNY8gjsSZSI8kPEzDsQ2 steve@greenleaf-tdg.com in_vehicle 51.00 60 109 312 53.82001350 -1.65386906 12.2800 2024-06-11T15:25:22.000Z 2024-06-11 15:25:22
816805 AgVPjwh4gNY8gjsSZSI8kPEzDsQ2 steve@greenleaf-tdg.com in_vehicle 4.80 70 120 303 53.81803126 -1.64932638 10.3800 2024-06-11T15:24:51.025Z 2024-06-11 15:24:51
816804 AgVPjwh4gNY8gjsSZSI8kPEzDsQ2 steve@greenleaf-tdg.com in_vehicle 4.60 96 145 312 53.81609545 -1.64736536 10.5300 2024-06-11T15:24:13.000Z 2024-06-11 15:24:13
816803 AgVPjwh4gNY8gjsSZSI8kPEzDsQ2 steve@greenleaf-tdg.com still 9.10 107 157 -1 53.81503919 -1.64395843 0.0000 2024-06-11T15:18:41.000Z 2024-06-11 15:18:41
816802 AgVPjwh4gNY8gjsSZSI8kPEzDsQ2 steve@greenleaf-tdg.com still 35.00 108 157 -1 53.81519140 -1.64350903 -1.0000 2024-06-11T15:18:27.698Z 2024-06-11 15:18:32
816801 AgVPjwh4gNY8gjsSZSI8kPEzDsQ2 steve@greenleaf-tdg.com on_foot 11.10 108 157 -1 53.81491647 -1.64390038 -1.0000 2024-06-11T15:12:02.732Z 2024-06-11 15:12:02
816800 AgVPjwh4gNY8gjsSZSI8kPEzDsQ2 steve@greenleaf-tdg.com on_foot 11.10 108 157 -1 53.81491647 -1.64390038 -1.0000 2024-06-11T15:12:01.128Z 2024-06-11 15:12:02
816799 AgVPjwh4gNY8gjsSZSI8kPEzDsQ2 steve@greenleaf-tdg.com on_foot 4.80 107 157 285 53.81468486 -1.64416733 0.1700 2024-06-11T15:07:11.000Z 2024-06-11 15:07:11
816798 AgVPjwh4gNY8gjsSZSI8kPEzDsQ2 steve@greenleaf-tdg.com on_foot 4.80 107 157 285 53.81467824 -1.64418283 0.1600 2024-06-11T15:07:10.022Z 2024-06-11 15:07:10
816797 AgVPjwh4gNY8gjsSZSI8kPEzDsQ2 steve@greenleaf-tdg.com in_vehicle 4.80 120 169 338 53.81105602 -1.64863796 8.3400 2024-06-11T15:05:29.000Z 2024-06-11 15:05:29
816796 AgVPjwh4gNY8gjsSZSI8kPEzDsQ2 steve@greenleaf-tdg.com in_vehicle 4.80 112 162 279 53.80662724 -1.63901213 13.5200 2024-06-11T15:03:40.000Z 2024-06-11 15:03:40
816795 AgVPjwh4gNY8gjsSZSI8kPEzDsQ2 steve@greenleaf-tdg.com in_vehicle 4.80 112 162 35 53.80604146 -1.63613891 0.0000 2024-06-11T15:03:15.000Z 2024-06-11 15:03:15
816794 AgVPjwh4gNY8gjsSZSI8kPEzDsQ2 steve@greenleaf-tdg.com in_vehicle 4.80 112 162 29 53.80604361 -1.63613669 0.0300 2024-06-11T15:02:10.000Z 2024-06-11 15:02:10
816793 AgVPjwh4gNY8gjsSZSI8kPEzDsQ2 steve@greenleaf-tdg.com in_vehicle 4.80 112 162 29 53.80604231 -1.63614025 0.0300 2024-06-11T15:02:09.023Z 2024-06-11 15:02:09
816792 AgVPjwh4gNY8gjsSZSI8kPEzDsQ2 steve@greenleaf-tdg.com in_vehicle 4.80 76 125 311 53.80062455 -1.63109925 14.9300 2024-06-11T15:00:36.000Z 2024-06-11 15:00:36
816791 AgVPjwh4gNY8gjsSZSI8kPEzDsQ2 steve@greenleaf-tdg.com in_vehicle 4.80 60 110 316 53.79515214 -1.62310216 12.9200 2024-06-11T14:59:31.000Z 2024-06-11 14:59:31
816790 AgVPjwh4gNY8gjsSZSI8kPEzDsQ2 steve@greenleaf-tdg.com in_vehicle 4.80 73 123 4 53.79154107 -1.62218501 3.5900 2024-06-11T14:58:26.000Z 2024-06-11 14:58:26
816789 AgVPjwh4gNY8gjsSZSI8kPEzDsQ2 steve@greenleaf-tdg.com in_vehicle 5.10 111 160 5 53.78794239 -1.62213071 6.9400 2024-06-11T14:57:08.001Z 2024-06-11 14:57:08
816788 AgVPjwh4gNY8gjsSZSI8kPEzDsQ2 steve@greenleaf-tdg.com in_vehicle 4.90 114 164 73 53.78574090 -1.62158295 5.8100 2024-06-11T14:55:59.000Z 2024-06-11 14:55:59
816787 AgVPjwh4gNY8gjsSZSI8kPEzDsQ2 steve@greenleaf-tdg.com unknown 4.90 116 165 32 53.78561330 -1.62199146 7.9300 2024-06-11T14:55:54.000Z 2024-06-11 14:55:55
816786 AgVPjwh4gNY8gjsSZSI8kPEzDsQ2 steve@greenleaf-tdg.com still 35.00 118 168 -1 53.78347485 -1.62350062 -1.0000 2024-06-11T11:11:54.352Z 2024-06-11 11:11:54
816785 AgVPjwh4gNY8gjsSZSI8kPEzDsQ2 steve@greenleaf-tdg.com in_vehicle 4.90 119 168 142 53.78365930 -1.62366246 0.0300 2024-06-11T11:04:40.036Z 2024-06-11 11:04:40
816784 AgVPjwh4gNY8gjsSZSI8kPEzDsQ2 steve@greenleaf-tdg.com in_vehicle 4.80 118 168 142 53.78367111 -1.62360070 0.0000 2024-06-11T11:03:42.000Z 2024-06-11 11:03:42
816783 AgVPjwh4gNY8gjsSZSI8kPEzDsQ2 steve@greenleaf-tdg.com in_vehicle 4.80 119 168 142 53.78367038 -1.62362507 0.0000 2024-06-11T11:03:26.000Z 2024-06-11 11:03:26
816782 AgVPjwh4gNY8gjsSZSI8kPEzDsQ2 steve@greenleaf-tdg.com in_vehicle 4.80 119 168 142 53.78367461 -1.62364302 0.0000 2024-06-11T11:03:08.000Z 2024-06-11 11:03:08
816781 AgVPjwh4gNY8gjsSZSI8kPEzDsQ2 steve@greenleaf-tdg.com in_vehicle 5.00 119 168 142 53.78363395 -1.62363278 0.0000 2024-06-11T11:01:46.000Z 2024-06-11 11:01:52
816780 AgVPjwh4gNY8gjsSZSI8kPEzDsQ2 steve@greenleaf-tdg.com in_vehicle 7.70 113 162 358 53.77933850 -1.62321228 9.6800 2024-06-11T10:59:47.000Z 2024-06-11 10:59:47
816779 AgVPjwh4gNY8gjsSZSI8kPEzDsQ2 steve@greenleaf-tdg.com in_vehicle 7.30 114 164 346 53.77881096 -1.62305602 8.7900 2024-06-11T10:59:40.032Z 2024-06-11 10:59:40
816778 AgVPjwh4gNY8gjsSZSI8kPEzDsQ2 steve@greenleaf-tdg.com in_vehicle 8.30 118 167 52 53.77388411 -1.62372929 14.2900 2024-06-11T10:58:44.000Z 2024-06-11 10:58:44
816777 AgVPjwh4gNY8gjsSZSI8kPEzDsQ2 steve@greenleaf-tdg.com in_vehicle 8.50 137 187 60 53.77103075 -1.63152279 11.1900 2024-06-11T10:57:55.000Z 2024-06-11 10:57:55
816776 AgVPjwh4gNY8gjsSZSI8kPEzDsQ2 steve@greenleaf-tdg.com in_vehicle 8.40 146 195 47 53.76751447 -1.64219928 16.1000 2024-06-11T10:56:36.000Z 2024-06-11 10:56:36
816775 AgVPjwh4gNY8gjsSZSI8kPEzDsQ2 steve@greenleaf-tdg.com in_vehicle 12.20 137 187 45 53.76225389 -1.65069996 16.0400 2024-06-11T10:55:46.000Z 2024-06-11 10:55:46
816774 AgVPjwh4gNY8gjsSZSI8kPEzDsQ2 steve@greenleaf-tdg.com in_vehicle 8.30 170 220 44 53.75766530 -1.66019794 12.6100 2024-06-11T10:54:54.000Z 2024-06-11 10:54:54
816773 AgVPjwh4gNY8gjsSZSI8kPEzDsQ2 steve@greenleaf-tdg.com in_vehicle 5.80 175 225 62 53.75670239 -1.66187069 2.4800 2024-06-11T10:54:39.031Z 2024-06-11 10:54:39
816772 AgVPjwh4gNY8gjsSZSI8kPEzDsQ2 steve@greenleaf-tdg.com in_vehicle 5.30 177 226 66 53.75650910 -1.66253062 0.0000 2024-06-11T10:54:23.000Z 2024-06-11 10:54:23
816771 AgVPjwh4gNY8gjsSZSI8kPEzDsQ2 steve@greenleaf-tdg.com in_vehicle 9.00 185 235 60 53.75508126 -1.66719260 13.2300 2024-06-11T10:53:08.000Z 2024-06-11 10:53:08
816770 AgVPjwh4gNY8gjsSZSI8kPEzDsQ2 steve@greenleaf-tdg.com in_vehicle 4.90 192 241 15 53.75258127 -1.67543545 8.5500 2024-06-11T10:52:12.000Z 2024-06-11 10:52:12
816769 AgVPjwh4gNY8gjsSZSI8kPEzDsQ2 steve@greenleaf-tdg.com in_vehicle 5.20 168 217 57 53.74908977 -1.68611797 14.7500 2024-06-11T10:51:17.000Z 2024-06-11 10:51:17
816768 AgVPjwh4gNY8gjsSZSI8kPEzDsQ2 steve@greenleaf-tdg.com in_vehicle 5.20 157 206 52 53.74535367 -1.69667123 12.7000 2024-06-11T10:50:05.000Z 2024-06-11 10:50:05
816767 AgVPjwh4gNY8gjsSZSI8kPEzDsQ2 steve@greenleaf-tdg.com in_vehicle 5.20 142 192 66 53.74376768 -1.70173502 17.5500 2024-06-11T10:49:38.046Z 2024-06-11 10:49:38
816766 AgVPjwh4gNY8gjsSZSI8kPEzDsQ2 steve@greenleaf-tdg.com in_vehicle 4.80 106 156 35 53.73998661 -1.70888856 19.4000 2024-06-11T10:49:02.000Z 2024-06-11 10:49:02
816765 AgVPjwh4gNY8gjsSZSI8kPEzDsQ2 steve@greenleaf-tdg.com in_vehicle 4.80 91 141 86 53.73618584 -1.71925863 13.3200 2024-06-11T10:47:45.000Z 2024-06-11 10:47:45
816764 AgVPjwh4gNY8gjsSZSI8kPEzDsQ2 steve@greenleaf-tdg.com in_vehicle 5.10 101 150 33 53.73761723 -1.72817831 11.4400 2024-06-11T10:45:48.000Z 2024-06-11 10:45:48
816763 AgVPjwh4gNY8gjsSZSI8kPEzDsQ2 steve@greenleaf-tdg.com in_vehicle 4.80 102 152 15 53.73574968 -1.72804251 0.0000 2024-06-11T10:45:03.000Z 2024-06-11 10:45:03
816762 AgVPjwh4gNY8gjsSZSI8kPEzDsQ2 steve@greenleaf-tdg.com in_vehicle 4.80 102 152 15 53.73574968 -1.72804251 0.0000 2024-06-11T10:45:02.000Z 2024-06-11 10:45:03
816761 AgVPjwh4gNY8gjsSZSI8kPEzDsQ2 steve@greenleaf-tdg.com still 4.90 102 152 15 53.73574968 -1.72804251 0.0000 2024-06-11T10:44:38.038Z 2024-06-11 10:44:38
816760 AgVPjwh4gNY8gjsSZSI8kPEzDsQ2 steve@greenleaf-tdg.com in_vehicle 4.90 103 153 25 53.73544400 -1.72822298 0.0000 2024-06-11T10:44:08.000Z 2024-06-11 10:44:08
816759 AgVPjwh4gNY8gjsSZSI8kPEzDsQ2 steve@greenleaf-tdg.com in_vehicle 4.90 127 177 31 53.72711935 -1.73470005 25.2500 2024-06-11T10:42:52.000Z 2024-06-11 10:42:52
816758 AgVPjwh4gNY8gjsSZSI8kPEzDsQ2 steve@greenleaf-tdg.com in_vehicle 5.10 151 201 17 53.71806032 -1.74499466 24.8200 2024-06-11T10:42:03.000Z 2024-06-11 10:42:03
816757 AgVPjwh4gNY8gjsSZSI8kPEzDsQ2 steve@greenleaf-tdg.com in_vehicle 5.00 119 169 350 53.70721260 -1.74398757 25.9400 2024-06-11T10:41:15.000Z 2024-06-11 10:41:15
816756 AgVPjwh4gNY8gjsSZSI8kPEzDsQ2 steve@greenleaf-tdg.com in_vehicle 4.80 76 126 46 53.69574923 -1.75306343 29.9300 2024-06-11T10:40:20.000Z 2024-06-11 10:40:20
816755 AgVPjwh4gNY8gjsSZSI8kPEzDsQ2 steve@greenleaf-tdg.com in_vehicle 5.00 114 164 59 53.68622506 -1.76464156 31.1600 2024-06-11T10:39:37.038Z 2024-06-11 10:39:37
816754 AgVPjwh4gNY8gjsSZSI8kPEzDsQ2 steve@greenleaf-tdg.com in_vehicle 4.90 120 169 68 53.68568852 -1.76631193 31.2300 2024-06-11T10:39:33.000Z 2024-06-11 10:39:33
816753 AgVPjwh4gNY8gjsSZSI8kPEzDsQ2 steve@greenleaf-tdg.com in_vehicle 4.70 166 215 75 53.68240427 -1.78699765 29.5500 2024-06-11T10:38:41.000Z 2024-06-11 10:38:41
816752 AgVPjwh4gNY8gjsSZSI8kPEzDsQ2 steve@greenleaf-tdg.com in_vehicle 4.70 204 254 75 53.67959876 -1.80490611 24.4100 2024-06-11T10:37:54.000Z 2024-06-11 10:37:54
816751 AgVPjwh4gNY8gjsSZSI8kPEzDsQ2 steve@greenleaf-tdg.com in_vehicle 4.70 222 272 67 53.67442253 -1.82112350 23.5800 2024-06-11T10:37:08.000Z 2024-06-11 10:37:08
816750 AgVPjwh4gNY8gjsSZSI8kPEzDsQ2 steve@greenleaf-tdg.com in_vehicle 5.00 210 260 280 53.66871528 -1.82862737 16.0500 2024-06-11T10:35:31.000Z 2024-06-11 10:35:31
816749 AgVPjwh4gNY8gjsSZSI8kPEzDsQ2 steve@greenleaf-tdg.com in_vehicle 5.40 211 261 79 53.67013906 -1.82676191 0.2000 2024-06-11T10:34:37.038Z 2024-06-11 10:34:37
816748 AgVPjwh4gNY8gjsSZSI8kPEzDsQ2 steve@greenleaf-tdg.com in_vehicle 4.90 202 252 287 53.66879387 -1.82551595 0.0000 2024-06-11T10:34:01.000Z 2024-06-11 10:34:01
816747 AgVPjwh4gNY8gjsSZSI8kPEzDsQ2 steve@greenleaf-tdg.com in_vehicle 4.80 185 235 326 53.66642791 -1.82269142 8.1800 2024-06-11T10:32:53.000Z 2024-06-11 10:32:53
816746 AgVPjwh4gNY8gjsSZSI8kPEzDsQ2 steve@greenleaf-tdg.com in_vehicle 5.00 177 227 320 53.66132306 -1.81407861 14.8300 2024-06-11T10:31:00.000Z 2024-06-11 10:31:00
816745 AgVPjwh4gNY8gjsSZSI8kPEzDsQ2 steve@greenleaf-tdg.com in_vehicle 5.20 149 199 305 53.65588114 -1.80611556 13.1000 2024-06-11T10:29:57.000Z 2024-06-11 10:30:25
816744 AgVPjwh4gNY8gjsSZSI8kPEzDsQ2 steve@greenleaf-tdg.com in_vehicle 4.90 143 193 291 53.65490628 -1.80268936 12.0500 2024-06-11T10:29:37.026Z 2024-06-11 10:29:47
816743 AgVPjwh4gNY8gjsSZSI8kPEzDsQ2 steve@greenleaf-tdg.com in_vehicle 7.10 136 186 298 53.65344370 -1.79790399 12.5500 2024-06-11T10:29:08.000Z 2024-06-11 10:29:11
816742 AgVPjwh4gNY8gjsSZSI8kPEzDsQ2 steve@greenleaf-tdg.com in_vehicle 5.70 120 170 313 53.65015198 -1.79067816 7.9900 2024-06-11T10:28:00.000Z 2024-06-11 10:28:00
816741 AgVPjwh4gNY8gjsSZSI8kPEzDsQ2 steve@greenleaf-tdg.com in_vehicle 4.80 97 146 322 53.64337892 -1.78660149 13.8500 2024-06-11T10:25:40.000Z 2024-06-11 10:25:40
816740 AgVPjwh4gNY8gjsSZSI8kPEzDsQ2 steve@greenleaf-tdg.com in_vehicle 4.80 87 137 14 53.64232444 -1.78442790 0.0800 2024-06-11T10:24:36.047Z 2024-06-11 10:24:36
816739 AgVPjwh4gNY8gjsSZSI8kPEzDsQ2 steve@greenleaf-tdg.com in_vehicle 4.70 86 136 27 53.64182932 -1.78488412 9.9300 2024-06-11T10:24:12.000Z 2024-06-11 10:24:12
816738 AgVPjwh4gNY8gjsSZSI8kPEzDsQ2 steve@greenleaf-tdg.com in_vehicle 4.80 73 123 53 53.63866609 -1.78782950 6.1800 2024-06-11T10:22:25.000Z 2024-06-11 10:22:25
816737 AgVPjwh4gNY8gjsSZSI8kPEzDsQ2 steve@greenleaf-tdg.com in_vehicle 4.80 77 126 44 53.63435242 -1.79340637 11.3900 2024-06-11T10:21:27.000Z 2024-06-11 10:21:27
816736 AgVPjwh4gNY8gjsSZSI8kPEzDsQ2 steve@greenleaf-tdg.com in_vehicle 4.80 79 128 335 53.63284095 -1.79517384 0.0000 2024-06-11T10:20:24.000Z 2024-06-11 10:20:24
816735 AgVPjwh4gNY8gjsSZSI8kPEzDsQ2 steve@greenleaf-tdg.com in_vehicle 5.30 89 139 37 53.63089002 -1.79521032 9.5100 2024-06-11T10:19:35.042Z 2024-06-11 10:19:35
816734 AgVPjwh4gNY8gjsSZSI8kPEzDsQ2 steve@greenleaf-tdg.com in_vehicle 5.10 98 147 45 53.62985999 -1.79686966 10.8000 2024-06-11T10:19:21.000Z 2024-06-11 10:19:21
816733 AgVPjwh4gNY8gjsSZSI8kPEzDsQ2 steve@greenleaf-tdg.com in_vehicle 5.20 111 161 336 53.62264809 -1.79821832 12.8700 2024-06-11T10:17:58.000Z 2024-06-11 10:17:58
816732 AgVPjwh4gNY8gjsSZSI8kPEzDsQ2 steve@greenleaf-tdg.com in_vehicle 4.80 104 154 30 53.61632628 -1.79240799 13.4900 2024-06-11T10:16:34.000Z 2024-06-11 10:16:34
816731 AgVPjwh4gNY8gjsSZSI8kPEzDsQ2 steve@greenleaf-tdg.com in_vehicle 16.20 100 150 29 53.60956183 -1.78800266 14.2000 2024-06-11T10:15:07.000Z 2024-06-11 10:15:07
816730 AgVPjwh4gNY8gjsSZSI8kPEzDsQ2 steve@greenleaf-tdg.com in_vehicle 10.10 102 152 347 53.60630737 -1.78869890 11.2700 2024-06-11T10:14:35.038Z 2024-06-11 10:14:35
816729 AgVPjwh4gNY8gjsSZSI8kPEzDsQ2 steve@greenleaf-tdg.com in_vehicle 11.80 112 162 340 53.60411156 -1.78927865 9.4200 2024-06-11T10:13:21.000Z 2024-06-11 10:13:21
816728 AgVPjwh4gNY8gjsSZSI8kPEzDsQ2 steve@greenleaf-tdg.com in_vehicle 4.80 126 176 231 53.60231876 -1.78879756 0.0000 2024-06-11T10:12:09.000Z 2024-06-11 10:12:09
816727 AgVPjwh4gNY8gjsSZSI8kPEzDsQ2 steve@greenleaf-tdg.com in_vehicle 4.80 127 177 231 53.60231632 -1.78880258 0.0000 2024-06-11T10:09:48.000Z 2024-06-11 10:09:48
816726 AgVPjwh4gNY8gjsSZSI8kPEzDsQ2 steve@greenleaf-tdg.com in_vehicle 14.60 126 176 231 53.60231005 -1.78881554 0.0000 2024-06-11T10:06:33.000Z 2024-06-11 10:06:33
816725 AgVPjwh4gNY8gjsSZSI8kPEzDsQ2 steve@greenleaf-tdg.com in_vehicle 4.80 127 177 227 53.60183593 -1.78970781 0.7800 2024-06-11T10:03:45.000Z 2024-06-11 10:03:45
816724 AgVPjwh4gNY8gjsSZSI8kPEzDsQ2 steve@greenleaf-tdg.com in_vehicle 4.80 127 177 227 53.60181818 -1.78973943 0.7800 2024-06-11T10:03:44.034Z 2024-06-11 10:03:44
816723 AgVPjwh4gNY8gjsSZSI8kPEzDsQ2 steve@greenleaf-tdg.com in_vehicle 4.70 112 162 164 53.60380200 -1.78904667 7.3900 2024-06-11T10:01:09.000Z 2024-06-11 10:01:09
816722 AgVPjwh4gNY8gjsSZSI8kPEzDsQ2 steve@greenleaf-tdg.com in_vehicle 4.80 102 151 172 53.60555113 -1.78825591 0.0000 2024-06-11T10:00:15.000Z 2024-06-11 10:00:15
816721 AgVPjwh4gNY8gjsSZSI8kPEzDsQ2 steve@greenleaf-tdg.com in_vehicle 4.80 98 148 208 53.60989745 -1.78751406 11.2500 2024-06-11T09:59:09.000Z 2024-06-11 09:59:09
816720 AgVPjwh4gNY8gjsSZSI8kPEzDsQ2 steve@greenleaf-tdg.com in_vehicle 5.10 103 153 108 53.61198260 -1.78805253 13.4600 2024-06-11T09:58:43.041Z 2024-06-11 09:58:43
816719 AgVPjwh4gNY8gjsSZSI8kPEzDsQ2 steve@greenleaf-tdg.com in_vehicle 8.10 114 164 206 53.61663755 -1.79195865 13.0200 2024-06-11T09:57:41.000Z 2024-06-11 09:57:41
816718 AgVPjwh4gNY8gjsSZSI8kPEzDsQ2 steve@greenleaf-tdg.com in_vehicle 5.60 110 159 164 53.62094304 -1.79747270 10.5800 2024-06-11T09:56:43.000Z 2024-06-11 09:56:43
816717 AgVPjwh4gNY8gjsSZSI8kPEzDsQ2 steve@greenleaf-tdg.com in_vehicle 9.30 119 168 200 53.62584023 -1.80142505 10.2500 2024-06-11T09:55:51.000Z 2024-06-11 09:55:51
816716 AgVPjwh4gNY8gjsSZSI8kPEzDsQ2 steve@greenleaf-tdg.com in_vehicle 5.30 93 143 224 53.63022644 -1.79613697 11.1900 2024-06-11T09:54:43.000Z 2024-06-11 09:54:43
816715 AgVPjwh4gNY8gjsSZSI8kPEzDsQ2 steve@greenleaf-tdg.com in_vehicle 5.00 79 129 227 53.63320020 -1.79515967 5.0500 2024-06-11T09:53:42.042Z 2024-06-11 09:53:42
816714 AgVPjwh4gNY8gjsSZSI8kPEzDsQ2 steve@greenleaf-tdg.com in_vehicle 5.00 79 129 224 53.63370676 -1.79431399 1.8300 2024-06-11T09:53:10.000Z 2024-06-11 09:53:10
816713 AgVPjwh4gNY8gjsSZSI8kPEzDsQ2 steve@greenleaf-tdg.com in_vehicle 5.10 74 123 233 53.63808923 -1.78896484 11.1900 2024-06-11T09:52:19.000Z 2024-06-11 09:52:19
816712 AgVPjwh4gNY8gjsSZSI8kPEzDsQ2 steve@greenleaf-tdg.com in_vehicle 4.80 74 124 94 53.63942305 -1.78681352 0.0000 2024-06-11T09:51:54.000Z 2024-06-11 09:51:54
816711 AgVPjwh4gNY8gjsSZSI8kPEzDsQ2 steve@greenleaf-tdg.com in_vehicle 4.90 78 128 109 53.64040456 -1.79267043 13.9300 2024-06-11T09:50:50.000Z 2024-06-11 09:50:50
816710 AgVPjwh4gNY8gjsSZSI8kPEzDsQ2 steve@greenleaf-tdg.com in_vehicle 4.80 82 132 257 53.64197972 -1.79442925 0.0000 2024-06-11T09:50:07.000Z 2024-06-11 09:50:07
816709 AgVPjwh4gNY8gjsSZSI8kPEzDsQ2 steve@greenleaf-tdg.com in_vehicle 5.00 83 133 265 53.64201878 -1.79380426 11.9700 2024-06-11T09:49:35.000Z 2024-06-11 09:49:35
816708 AgVPjwh4gNY8gjsSZSI8kPEzDsQ2 steve@greenleaf-tdg.com in_vehicle 4.90 87 137 225 53.64238925 -1.78465030 8.0700 2024-06-11T09:48:41.046Z 2024-06-11 09:48:41
816707 AgVPjwh4gNY8gjsSZSI8kPEzDsQ2 steve@greenleaf-tdg.com in_vehicle 4.80 91 140 110 53.64279775 -1.78477457 0.0000 2024-06-11T09:48:29.000Z 2024-06-11 09:48:29
816706 AgVPjwh4gNY8gjsSZSI8kPEzDsQ2 steve@greenleaf-tdg.com in_vehicle 4.80 105 155 181 53.64551322 -1.78757521 13.4800 2024-06-11T09:47:15.000Z 2024-06-11 09:47:15